<?xml version="1.0" encoding="utf-8"?>
<gpx xmlns:xsi="http://www.w3.org/2001/XMLSchema-instance" xmlns:xsd="http://www.w3.org/2001/XMLSchema" version="1.1" creator="Shapelink.com" xmlns="http://www.topografix.com/GPX/1/1" xmlns:gpxtpx="http://www.garmin.com/xmlschemas/TrackPointExtension/v1">
  <metadata>
    <name>Löpning 15.03 km, 2019-05-01</name>
    <desc></desc>
    <author><name>Marian Moron</name></author> 
    <time>2019-05-01T10:49:15Z</time>
  </metadata>
  <trk>
    <name>Löpning 15.03 km, 2019-05-01</name>
    <trkseg>
      <trkpt lat="51.22973442663" lon="4.458340321348">
        <ele>0</ele>
        <time>2019-05-01T10:49:19Z</time>
      </trkpt>
      <trkpt lat="51.229916565317" lon="4.458529417012">
        <ele>0</ele>
        <time>2019-05-01T10:49:29Z</time>
      </trkpt>
      <trkpt lat="51.229960067378" lon="4.458834099077">
        <ele>0</ele>
        <time>2019-05-01T10:49:38Z</time>
      </trkpt>
      <trkpt lat="51.230139104762" lon="4.458886402133">
        <ele>0</ele>
        <time>2019-05-01T10:49:47Z</time>
      </trkpt>
      <trkpt lat="51.230333313385" lon="4.458875924758">
        <ele>0</ele>
        <time>2019-05-01T10:49:55Z</time>
      </trkpt>
      <trkpt lat="51.230396764368" lon="4.459139870789">
        <ele>0</ele>
        <time>2019-05-01T10:50:02Z</time>
      </trkpt>
      <trkpt lat="51.230449821795" lon="4.459452348021">
        <ele>3.4</ele>
        <time>2019-05-01T10:50:10Z</time>
      </trkpt>
      <trkpt lat="51.230517044633" lon="4.459748145272">
        <ele>5.4</ele>
        <time>2019-05-01T10:50:18Z</time>
      </trkpt>
      <trkpt lat="51.230704128641" lon="4.459765160529">
        <ele>6.2</ele>
        <time>2019-05-01T10:50:26Z</time>
      </trkpt>
      <trkpt lat="51.230901103291" lon="4.459731130015">
        <ele>7</ele>
        <time>2019-05-01T10:50:33Z</time>
      </trkpt>
      <trkpt lat="51.231102268891" lon="4.459692489456">
        <ele>7.4</ele>
        <time>2019-05-01T10:50:41Z</time>
      </trkpt>
      <trkpt lat="51.231284491397" lon="4.459692070361">
        <ele>2.4</ele>
        <time>2019-05-01T10:50:48Z</time>
      </trkpt>
      <trkpt lat="51.23147283269" lon="4.459717635156">
        <ele>0.4</ele>
        <time>2019-05-01T10:50:55Z</time>
      </trkpt>
      <trkpt lat="51.231642901441" lon="4.459622416772">
        <ele>0</ele>
        <time>2019-05-01T10:51:02Z</time>
      </trkpt>
      <trkpt lat="51.231784471732" lon="4.459449162899">
        <ele>0</ele>
        <time>2019-05-01T10:51:08Z</time>
      </trkpt>
      <trkpt lat="51.231967113333" lon="4.459350843212">
        <ele>0</ele>
        <time>2019-05-01T10:51:14Z</time>
      </trkpt>
      <trkpt lat="51.232159477938" lon="4.459387388296">
        <ele>0</ele>
        <time>2019-05-01T10:51:22Z</time>
      </trkpt>
      <trkpt lat="51.232229550622" lon="4.459405577019">
        <ele>0</ele>
        <time>2019-05-01T10:51:25Z</time>
      </trkpt>
      <trkpt lat="51.23243172205" lon="4.459356626723">
        <ele>0</ele>
        <time>2019-05-01T10:51:34Z</time>
      </trkpt>
      <trkpt lat="51.232629367252" lon="4.459307089694">
        <ele>0</ele>
        <time>2019-05-01T10:51:40Z</time>
      </trkpt>
      <trkpt lat="51.232703714705" lon="4.459379928405">
        <ele>0</ele>
        <time>2019-05-01T10:51:43Z</time>
      </trkpt>
      <trkpt lat="51.232753419372" lon="4.459679246054">
        <ele>0</ele>
        <time>2019-05-01T10:51:50Z</time>
      </trkpt>
      <trkpt lat="51.232818798192" lon="4.459980575359">
        <ele>0</ele>
        <time>2019-05-01T10:51:57Z</time>
      </trkpt>
      <trkpt lat="51.232888116505" lon="4.460291292392">
        <ele>0</ele>
        <time>2019-05-01T10:52:04Z</time>
      </trkpt>
      <trkpt lat="51.232956848085" lon="4.460607876755">
        <ele>1.2</ele>
        <time>2019-05-01T10:52:11Z</time>
      </trkpt>
      <trkpt lat="51.23305701179" lon="4.460900740341">
        <ele>4.8</ele>
        <time>2019-05-01T10:52:18Z</time>
      </trkpt>
      <trkpt lat="51.233125408094" lon="4.46116820677">
        <ele>9.2</ele>
        <time>2019-05-01T10:52:24Z</time>
      </trkpt>
      <trkpt lat="51.233205790515" lon="4.461449419515">
        <ele>15.6</ele>
        <time>2019-05-01T10:52:31Z</time>
      </trkpt>
      <trkpt lat="51.23324141359" lon="4.461750916458">
        <ele>19.6</ele>
        <time>2019-05-01T10:52:38Z</time>
      </trkpt>
      <trkpt lat="51.233270666421" lon="4.461929618566">
        <ele>21.2</ele>
        <time>2019-05-01T10:52:43Z</time>
      </trkpt>
      <trkpt lat="51.233302098546" lon="4.462007989331">
        <ele>21.8</ele>
        <time>2019-05-01T10:52:46Z</time>
      </trkpt>
      <trkpt lat="51.233330345549" lon="4.462294063578">
        <ele>22.2</ele>
        <time>2019-05-01T10:52:53Z</time>
      </trkpt>
      <trkpt lat="51.233363454054" lon="4.462596147254">
        <ele>21.8</ele>
        <time>2019-05-01T10:53:00Z</time>
      </trkpt>
      <trkpt lat="51.233407626667" lon="4.462905020269">
        <ele>22.2</ele>
        <time>2019-05-01T10:53:07Z</time>
      </trkpt>
      <trkpt lat="51.233449117072" lon="4.463220012071">
        <ele>23.2</ele>
        <time>2019-05-01T10:53:14Z</time>
      </trkpt>
      <trkpt lat="51.233529164217" lon="4.463504577576">
        <ele>26</ele>
        <time>2019-05-01T10:53:21Z</time>
      </trkpt>
      <trkpt lat="51.233577192504" lon="4.463815713704">
        <ele>28.4</ele>
        <time>2019-05-01T10:53:29Z</time>
      </trkpt>
      <trkpt lat="51.233581299635" lon="4.464004725549">
        <ele>30.6</ele>
        <time>2019-05-01T10:53:35Z</time>
      </trkpt>
      <trkpt lat="51.233610468647" lon="4.464295409841">
        <ele>29.2</ele>
        <time>2019-05-01T10:53:42Z</time>
      </trkpt>
      <trkpt lat="51.233653970708" lon="4.464579556251">
        <ele>29.2</ele>
        <time>2019-05-01T10:53:49Z</time>
      </trkpt>
      <trkpt lat="51.233704429746" lon="4.464866636326">
        <ele>31.2</ele>
        <time>2019-05-01T10:53:56Z</time>
      </trkpt>
      <trkpt lat="51.233781375588" lon="4.465170312563">
        <ele>33.8</ele>
        <time>2019-05-01T10:54:04Z</time>
      </trkpt>
      <trkpt lat="51.233851364453" lon="4.465438030449">
        <ele>37.4</ele>
        <time>2019-05-01T10:54:11Z</time>
      </trkpt>
      <trkpt lat="51.233917413825" lon="4.465712118579">
        <ele>40.6</ele>
        <time>2019-05-01T10:54:18Z</time>
      </trkpt>
      <trkpt lat="51.233997880065" lon="4.46597103547">
        <ele>44.6</ele>
        <time>2019-05-01T10:54:25Z</time>
      </trkpt>
      <trkpt lat="51.234032748769" lon="4.466292481335">
        <ele>45</ele>
        <time>2019-05-01T10:54:33Z</time>
      </trkpt>
      <trkpt lat="51.234071724604" lon="4.466584339093">
        <ele>43.8</ele>
        <time>2019-05-01T10:54:40Z</time>
      </trkpt>
      <trkpt lat="51.234136349053" lon="4.466866473847">
        <ele>41.8</ele>
        <time>2019-05-01T10:54:48Z</time>
      </trkpt>
      <trkpt lat="51.234174989612" lon="4.467165959134">
        <ele>40.8</ele>
        <time>2019-05-01T10:54:56Z</time>
      </trkpt>
      <trkpt lat="51.234281020647" lon="4.467654791542">
        <ele>52.4</ele>
        <time>2019-05-01T10:55:09Z</time>
      </trkpt>
      <trkpt lat="51.234298119723" lon="4.467957294313">
        <ele>45.4</ele>
        <time>2019-05-01T10:55:16Z</time>
      </trkpt>
      <trkpt lat="51.234334664807" lon="4.468239093791">
        <ele>43.8</ele>
        <time>2019-05-01T10:55:23Z</time>
      </trkpt>
      <trkpt lat="51.234396607048" lon="4.468536148327">
        <ele>47.8</ele>
        <time>2019-05-01T10:55:31Z</time>
      </trkpt>
      <trkpt lat="51.234443713326" lon="4.468821552022">
        <ele>49.4</ele>
        <time>2019-05-01T10:55:38Z</time>
      </trkpt>
      <trkpt lat="51.234508002499" lon="4.469114080332">
        <ele>49</ele>
        <time>2019-05-01T10:55:45Z</time>
      </trkpt>
      <trkpt lat="51.234556366062" lon="4.469402082416">
        <ele>49.8</ele>
        <time>2019-05-01T10:55:52Z</time>
      </trkpt>
      <trkpt lat="51.234610429317" lon="4.469700897151">
        <ele>54.4</ele>
        <time>2019-05-01T10:56:00Z</time>
      </trkpt>
      <trkpt lat="51.234653177007" lon="4.470003819017">
        <ele>57.8</ele>
        <time>2019-05-01T10:56:08Z</time>
      </trkpt>
      <trkpt lat="51.234640855614" lon="4.470348482745">
        <ele>47.6</ele>
        <time>2019-05-01T10:56:16Z</time>
      </trkpt>
      <trkpt lat="51.234658038509" lon="4.47065987033">
        <ele>38.8</ele>
        <time>2019-05-01T10:56:23Z</time>
      </trkpt>
      <trkpt lat="51.234688380987" lon="4.470943932921">
        <ele>34.8</ele>
        <time>2019-05-01T10:56:30Z</time>
      </trkpt>
      <trkpt lat="51.234750574685" lon="4.471254398497">
        <ele>37.8</ele>
        <time>2019-05-01T10:56:38Z</time>
      </trkpt>
      <trkpt lat="51.234815199134" lon="4.471556398354">
        <ele>38.8</ele>
        <time>2019-05-01T10:56:46Z</time>
      </trkpt>
      <trkpt lat="51.234873285701" lon="4.471858230573">
        <ele>40.2</ele>
        <time>2019-05-01T10:56:54Z</time>
      </trkpt>
      <trkpt lat="51.23491360264" lon="4.472160481887">
        <ele>40.8</ele>
        <time>2019-05-01T10:57:02Z</time>
      </trkpt>
      <trkpt lat="51.234943023109" lon="4.472453848387">
        <ele>36.4</ele>
        <time>2019-05-01T10:57:09Z</time>
      </trkpt>
      <trkpt lat="51.23498317241" lon="4.472775629528">
        <ele>31</ele>
        <time>2019-05-01T10:57:17Z</time>
      </trkpt>
      <trkpt lat="51.235041761891" lon="4.473056674635">
        <ele>28.4</ele>
        <time>2019-05-01T10:57:24Z</time>
      </trkpt>
      <trkpt lat="51.235090879825" lon="4.473383568735">
        <ele>25.6</ele>
        <time>2019-05-01T10:57:32Z</time>
      </trkpt>
      <trkpt lat="51.235127424909" lon="4.473679785081">
        <ele>18.2</ele>
        <time>2019-05-01T10:57:39Z</time>
      </trkpt>
      <trkpt lat="51.235188445141" lon="4.47397826454">
        <ele>16.2</ele>
        <time>2019-05-01T10:57:47Z</time>
      </trkpt>
      <trkpt lat="51.23525139321" lon="4.474273223601">
        <ele>17.8</ele>
        <time>2019-05-01T10:57:55Z</time>
      </trkpt>
      <trkpt lat="51.235312413442" lon="4.474559465486">
        <ele>17.4</ele>
        <time>2019-05-01T10:58:03Z</time>
      </trkpt>
      <trkpt lat="51.235362704842" lon="4.474847132294">
        <ele>14.8</ele>
        <time>2019-05-01T10:58:11Z</time>
      </trkpt>
      <trkpt lat="51.235434453906" lon="4.475120130777">
        <ele>13.6</ele>
        <time>2019-05-01T10:58:19Z</time>
      </trkpt>
      <trkpt lat="51.23549949745" lon="4.47541240763">
        <ele>13</ele>
        <time>2019-05-01T10:58:27Z</time>
      </trkpt>
      <trkpt lat="51.235573844903" lon="4.475714910401">
        <ele>15.4</ele>
        <time>2019-05-01T10:58:35Z</time>
      </trkpt>
      <trkpt lat="51.235636876791" lon="4.47602512452">
        <ele>15.8</ele>
        <time>2019-05-01T10:58:43Z</time>
      </trkpt>
      <trkpt lat="51.235675182074" lon="4.476312958966">
        <ele>12.2</ele>
        <time>2019-05-01T10:58:50Z</time>
      </trkpt>
      <trkpt lat="51.23572916151" lon="4.476594842263">
        <ele>13.8</ele>
        <time>2019-05-01T10:58:57Z</time>
      </trkpt>
      <trkpt lat="51.235774675227" lon="4.476872199334">
        <ele>13.6</ele>
        <time>2019-05-01T10:59:04Z</time>
      </trkpt>
      <trkpt lat="51.235851453431" lon="4.477142347971">
        <ele>13.4</ele>
        <time>2019-05-01T10:59:11Z</time>
      </trkpt>
      <trkpt lat="51.235936948811" lon="4.477420543232">
        <ele>12.8</ele>
        <time>2019-05-01T10:59:18Z</time>
      </trkpt>
      <trkpt lat="51.235979277406" lon="4.477709551144">
        <ele>9</ele>
        <time>2019-05-01T10:59:25Z</time>
      </trkpt>
      <trkpt lat="51.23603342448" lon="4.478021022548">
        <ele>6.6</ele>
        <time>2019-05-01T10:59:32Z</time>
      </trkpt>
      <trkpt lat="51.236089918486" lon="4.478325620794">
        <ele>5.6</ele>
        <time>2019-05-01T10:59:39Z</time>
      </trkpt>
      <trkpt lat="51.236115483281" lon="4.478651760523">
        <ele>6.2</ele>
        <time>2019-05-01T10:59:47Z</time>
      </trkpt>
      <trkpt lat="51.236164852672" lon="4.478971278551">
        <ele>15.6</ele>
        <time>2019-05-01T10:59:55Z</time>
      </trkpt>
      <trkpt lat="51.236200308109" lon="4.479294736072">
        <ele>22.2</ele>
        <time>2019-05-01T11:00:03Z</time>
      </trkpt>
      <trkpt lat="51.236200140471" lon="4.479595646282">
        <ele>22.4</ele>
        <time>2019-05-01T11:00:10Z</time>
      </trkpt>
      <trkpt lat="51.236196955349" lon="4.479894293379">
        <ele>26.2</ele>
        <time>2019-05-01T11:00:17Z</time>
      </trkpt>
      <trkpt lat="51.236191339476" lon="4.480181960187">
        <ele>27</ele>
        <time>2019-05-01T11:00:24Z</time>
      </trkpt>
      <trkpt lat="51.236185053051" lon="4.480468285891">
        <ele>24</ele>
        <time>2019-05-01T11:00:31Z</time>
      </trkpt>
      <trkpt lat="51.236164014482" lon="4.480787636281">
        <ele>22.8</ele>
        <time>2019-05-01T11:00:38Z</time>
      </trkpt>
      <trkpt lat="51.236149681433" lon="4.481107741042">
        <ele>20.2</ele>
        <time>2019-05-01T11:00:45Z</time>
      </trkpt>
      <trkpt lat="51.236112884892" lon="4.481605961178">
        <ele>17.2</ele>
        <time>2019-05-01T11:00:56Z</time>
      </trkpt>
      <trkpt lat="51.236068125546" lon="4.481916175297">
        <ele>13.6</ele>
        <time>2019-05-01T11:01:04Z</time>
      </trkpt>
      <trkpt lat="51.236047757529" lon="4.482236280058">
        <ele>11.6</ele>
        <time>2019-05-01T11:01:12Z</time>
      </trkpt>
      <trkpt lat="51.236039627086" lon="4.482529311282">
        <ele>9.4</ele>
        <time>2019-05-01T11:01:19Z</time>
      </trkpt>
      <trkpt lat="51.236015990128" lon="4.482817732461">
        <ele>5</ele>
        <time>2019-05-01T11:01:26Z</time>
      </trkpt>
      <trkpt lat="51.235996795577" lon="4.483125851105">
        <ele>1.8</ele>
        <time>2019-05-01T11:01:33Z</time>
      </trkpt>
      <trkpt lat="51.235991095885" lon="4.483438412156">
        <ele>2.2</ele>
        <time>2019-05-01T11:01:41Z</time>
      </trkpt>
      <trkpt lat="51.236001657079" lon="4.483738316538">
        <ele>7</ele>
        <time>2019-05-01T11:01:49Z</time>
      </trkpt>
      <trkpt lat="51.236024707304" lon="4.484060516774">
        <ele>11.6</ele>
        <time>2019-05-01T11:01:57Z</time>
      </trkpt>
      <trkpt lat="51.236034346489" lon="4.484369892703">
        <ele>11.8</ele>
        <time>2019-05-01T11:02:04Z</time>
      </trkpt>
      <trkpt lat="51.236040716733" lon="4.484668707438">
        <ele>12.4</ele>
        <time>2019-05-01T11:02:11Z</time>
      </trkpt>
      <trkpt lat="51.236042979846" lon="4.484995685357">
        <ele>12.4</ele>
        <time>2019-05-01T11:02:19Z</time>
      </trkpt>
      <trkpt lat="51.236057815809" lon="4.485293494264">
        <ele>13.6</ele>
        <time>2019-05-01T11:02:26Z</time>
      </trkpt>
      <trkpt lat="51.236165607043" lon="4.485513100044">
        <ele>18.4</ele>
        <time>2019-05-01T11:02:34Z</time>
      </trkpt>
      <trkpt lat="51.236304746583" lon="4.485728514874">
        <ele>22</ele>
        <time>2019-05-01T11:02:42Z</time>
      </trkpt>
      <trkpt lat="51.236368784299" lon="4.486023641573">
        <ele>23.6</ele>
        <time>2019-05-01T11:02:50Z</time>
      </trkpt>
      <trkpt lat="51.236356043811" lon="4.486344333067">
        <ele>23</ele>
        <time>2019-05-01T11:02:58Z</time>
      </trkpt>
      <trkpt lat="51.236366521186" lon="4.486659995421">
        <ele>22</ele>
        <time>2019-05-01T11:03:06Z</time>
      </trkpt>
      <trkpt lat="51.236371550326" lon="4.486966102409">
        <ele>20.2</ele>
        <time>2019-05-01T11:03:14Z</time>
      </trkpt>
      <trkpt lat="51.236371634145" lon="4.487256367606">
        <ele>19.2</ele>
        <time>2019-05-01T11:03:21Z</time>
      </trkpt>
      <trkpt lat="51.236364258073" lon="4.4875435315">
        <ele>20.4</ele>
        <time>2019-05-01T11:03:28Z</time>
      </trkpt>
      <trkpt lat="51.236378423484" lon="4.487841591864">
        <ele>19.4</ele>
        <time>2019-05-01T11:03:35Z</time>
      </trkpt>
      <trkpt lat="51.236384877547" lon="4.488143424083">
        <ele>17.2</ele>
        <time>2019-05-01T11:03:42Z</time>
      </trkpt>
      <trkpt lat="51.236394432913" lon="4.488432264357">
        <ele>17.4</ele>
        <time>2019-05-01T11:03:49Z</time>
      </trkpt>
      <trkpt lat="51.236392002162" lon="4.488760248104">
        <ele>15.8</ele>
        <time>2019-05-01T11:03:57Z</time>
      </trkpt>
      <trkpt lat="51.236401306071" lon="4.489053614604">
        <ele>14.8</ele>
        <time>2019-05-01T11:04:04Z</time>
      </trkpt>
      <trkpt lat="51.236422428459" lon="4.489377155944">
        <ele>15</ele>
        <time>2019-05-01T11:04:12Z</time>
      </trkpt>
      <trkpt lat="51.236414298016" lon="4.489688375891">
        <ele>14.2</ele>
        <time>2019-05-01T11:04:19Z</time>
      </trkpt>
      <trkpt lat="51.236417986052" lon="4.490003702969">
        <ele>19</ele>
        <time>2019-05-01T11:04:27Z</time>
      </trkpt>
      <trkpt lat="51.236451848928" lon="4.490303523532">
        <ele>19.6</ele>
        <time>2019-05-01T11:04:35Z</time>
      </trkpt>
      <trkpt lat="51.236630886312" lon="4.490423971435">
        <ele>13.8</ele>
        <time>2019-05-01T11:04:44Z</time>
      </trkpt>
      <trkpt lat="51.236810258972" lon="4.490463953098">
        <ele>11</ele>
        <time>2019-05-01T11:04:52Z</time>
      </trkpt>
      <trkpt lat="51.237002958853" lon="4.490461187071">
        <ele>8</ele>
        <time>2019-05-01T11:05:01Z</time>
      </trkpt>
      <trkpt lat="51.237179900762" lon="4.490406034169">
        <ele>6.8</ele>
        <time>2019-05-01T11:05:09Z</time>
      </trkpt>
      <trkpt lat="51.237360530707" lon="4.490329004508">
        <ele>6</ele>
        <time>2019-05-01T11:05:17Z</time>
      </trkpt>
      <trkpt lat="51.237539065177" lon="4.490234372857">
        <ele>8</ele>
        <time>2019-05-01T11:05:25Z</time>
      </trkpt>
      <trkpt lat="51.237725813909" lon="4.490162791431">
        <ele>6.6</ele>
        <time>2019-05-01T11:05:33Z</time>
      </trkpt>
      <trkpt lat="51.237912814098" lon="4.490111158927">
        <ele>7.8</ele>
        <time>2019-05-01T11:05:41Z</time>
      </trkpt>
      <trkpt lat="51.238114147336" lon="4.490086432322">
        <ele>9.2</ele>
        <time>2019-05-01T11:05:49Z</time>
      </trkpt>
      <trkpt lat="51.238305338475" lon="4.490076290223">
        <ele>9.4</ele>
        <time>2019-05-01T11:05:57Z</time>
      </trkpt>
      <trkpt lat="51.238490327008" lon="4.490091293824">
        <ele>8.2</ele>
        <time>2019-05-01T11:06:05Z</time>
      </trkpt>
      <trkpt lat="51.238678668301" lon="4.490126330166">
        <ele>8.4</ele>
        <time>2019-05-01T11:06:13Z</time>
      </trkpt>
      <trkpt lat="51.238862148092" lon="4.490176202471">
        <ele>11.8</ele>
        <time>2019-05-01T11:06:21Z</time>
      </trkpt>
      <trkpt lat="51.239053339231" lon="4.490263877145">
        <ele>15.2</ele>
        <time>2019-05-01T11:06:30Z</time>
      </trkpt>
      <trkpt lat="51.239233466262" lon="4.490342583186">
        <ele>16.8</ele>
        <time>2019-05-01T11:06:38Z</time>
      </trkpt>
      <trkpt lat="51.239415604949" lon="4.490415421897">
        <ele>16.6</ele>
        <time>2019-05-01T11:06:46Z</time>
      </trkpt>
      <trkpt lat="51.239733865692" lon="4.490541904768">
        <ele>16.2</ele>
        <time>2019-05-01T11:07:00Z</time>
      </trkpt>
      <trkpt lat="51.239912819257" lon="4.490635865867">
        <ele>16.6</ele>
        <time>2019-05-01T11:07:08Z</time>
      </trkpt>
      <trkpt lat="51.239964200304" lon="4.490674338788">
        <ele>15.8</ele>
        <time>2019-05-01T11:07:11Z</time>
      </trkpt>
      <trkpt lat="51.23995531549" lon="4.490675679892">
        <ele>15</ele>
        <time>2019-05-01T11:07:13Z</time>
      </trkpt>
      <trkpt lat="51.240137286539" lon="4.490768467525">
        <ele>12.2</ele>
        <time>2019-05-01T11:07:22Z</time>
      </trkpt>
      <trkpt lat="51.240326466022" lon="4.490862009529">
        <ele>10</ele>
        <time>2019-05-01T11:07:30Z</time>
      </trkpt>
      <trkpt lat="51.240523189215" lon="4.490934596783">
        <ele>12.2</ele>
        <time>2019-05-01T11:07:38Z</time>
      </trkpt>
      <trkpt lat="51.240697532735" lon="4.491015733575">
        <ele>11</ele>
        <time>2019-05-01T11:07:45Z</time>
      </trkpt>
      <trkpt lat="51.240895680851" lon="4.491096535091">
        <ele>8.8</ele>
        <time>2019-05-01T11:07:53Z</time>
      </trkpt>
      <trkpt lat="51.241075891701" lon="4.491169792897">
        <ele>8.2</ele>
        <time>2019-05-01T11:08:00Z</time>
      </trkpt>
      <trkpt lat="51.241244200253" lon="4.491275488656">
        <ele>5</ele>
        <time>2019-05-01T11:08:08Z</time>
      </trkpt>
      <trkpt lat="51.241415693927" lon="4.491435582946">
        <ele>3.4</ele>
        <time>2019-05-01T11:08:16Z</time>
      </trkpt>
      <trkpt lat="51.241576207312" lon="4.491632389958">
        <ele>4</ele>
        <time>2019-05-01T11:08:23Z</time>
      </trkpt>
      <trkpt lat="51.241716604137" lon="4.491876638524">
        <ele>4.4</ele>
        <time>2019-05-01T11:08:30Z</time>
      </trkpt>
      <trkpt lat="51.241833112547" lon="4.492134130492">
        <ele>6.6</ele>
        <time>2019-05-01T11:08:37Z</time>
      </trkpt>
      <trkpt lat="51.241927073646" lon="4.492397825066">
        <ele>10.4</ele>
        <time>2019-05-01T11:08:43Z</time>
      </trkpt>
      <trkpt lat="51.241990692267" lon="4.492714493248">
        <ele>11.2</ele>
        <time>2019-05-01T11:08:50Z</time>
      </trkpt>
      <trkpt lat="51.242017346709" lon="4.493033340724">
        <ele>8</ele>
        <time>2019-05-01T11:08:57Z</time>
      </trkpt>
      <trkpt lat="51.242035367794" lon="4.493137360103">
        <ele>6.2</ele>
        <time>2019-05-01T11:09:00Z</time>
      </trkpt>
      <trkpt lat="51.242061351684" lon="4.493455872303">
        <ele>6.2</ele>
        <time>2019-05-01T11:09:08Z</time>
      </trkpt>
      <trkpt lat="51.242112732731" lon="4.493748149156">
        <ele>8.2</ele>
        <time>2019-05-01T11:09:15Z</time>
      </trkpt>
      <trkpt lat="51.24212790397" lon="4.493911763844">
        <ele>9.4</ele>
        <time>2019-05-01T11:09:20Z</time>
      </trkpt>
      <trkpt lat="51.242121114631" lon="4.493781173842">
        <ele>13.2</ele>
        <time>2019-05-01T11:09:25Z</time>
      </trkpt>
      <trkpt lat="51.242306103164" lon="4.493641447569">
        <ele>18</ele>
        <time>2019-05-01T11:09:34Z</time>
      </trkpt>
      <trkpt lat="51.24242210866" lon="4.49368997877">
        <ele>14.4</ele>
        <time>2019-05-01T11:09:40Z</time>
      </trkpt>
      <trkpt lat="51.242460833038" lon="4.493979405777">
        <ele>14</ele>
        <time>2019-05-01T11:09:48Z</time>
      </trkpt>
      <trkpt lat="51.24249754576" lon="4.494276627951">
        <ele>14.4</ele>
        <time>2019-05-01T11:09:56Z</time>
      </trkpt>
      <trkpt lat="51.242557392526" lon="4.494586339156">
        <ele>11.6</ele>
        <time>2019-05-01T11:10:04Z</time>
      </trkpt>
      <trkpt lat="51.242571557937" lon="4.494909377582">
        <ele>7</ele>
        <time>2019-05-01T11:10:11Z</time>
      </trkpt>
      <trkpt lat="51.242589411384" lon="4.495199894236">
        <ele>8.2</ele>
        <time>2019-05-01T11:10:18Z</time>
      </trkpt>
      <trkpt lat="51.242621262604" lon="4.4955063365">
        <ele>9.4</ele>
        <time>2019-05-01T11:10:27Z</time>
      </trkpt>
      <trkpt lat="51.242719917567" lon="4.495776568956">
        <ele>10.8</ele>
        <time>2019-05-01T11:10:36Z</time>
      </trkpt>
      <trkpt lat="51.24286551117" lon="4.495956360711">
        <ele>9</ele>
        <time>2019-05-01T11:10:44Z</time>
      </trkpt>
      <trkpt lat="51.243012781153" lon="4.496128022023">
        <ele>5.6</ele>
        <time>2019-05-01T11:10:52Z</time>
      </trkpt>
      <trkpt lat="51.243157620385" lon="4.496304880113">
        <ele>0</ele>
        <time>2019-05-01T11:11:00Z</time>
      </trkpt>
      <trkpt lat="51.24327873884" lon="4.496525240264">
        <ele>3</ele>
        <time>2019-05-01T11:11:06Z</time>
      </trkpt>
      <trkpt lat="51.243349565895" lon="4.496803351706">
        <ele>4.6</ele>
        <time>2019-05-01T11:11:13Z</time>
      </trkpt>
      <trkpt lat="51.24336171965" lon="4.497099987147">
        <ele>6.8</ele>
        <time>2019-05-01T11:11:21Z</time>
      </trkpt>
      <trkpt lat="51.243360127089" lon="4.497409363076">
        <ele>7.2</ele>
        <time>2019-05-01T11:11:29Z</time>
      </trkpt>
      <trkpt lat="51.243445873926" lon="4.49769568878">
        <ele>3.8</ele>
        <time>2019-05-01T11:11:37Z</time>
      </trkpt>
      <trkpt lat="51.243615355944" lon="4.497815801407">
        <ele>4.4</ele>
        <time>2019-05-01T11:11:45Z</time>
      </trkpt>
      <trkpt lat="51.243813001146" lon="4.497777999038">
        <ele>7.6</ele>
        <time>2019-05-01T11:11:53Z</time>
      </trkpt>
      <trkpt lat="51.243968736848" lon="4.497615138721">
        <ele>11.6</ele>
        <time>2019-05-01T11:12:01Z</time>
      </trkpt>
      <trkpt lat="51.244098907755" lon="4.497404417755">
        <ele>16.4</ele>
        <time>2019-05-01T11:12:09Z</time>
      </trkpt>
      <trkpt lat="51.24427450856" lon="4.49727072645">
        <ele>17.2</ele>
        <time>2019-05-01T11:12:16Z</time>
      </trkpt>
      <trkpt lat="51.244462514577" lon="4.497253040641">
        <ele>14.2</ele>
        <time>2019-05-01T11:12:23Z</time>
      </trkpt>
      <trkpt lat="51.244652616069" lon="4.497239964877">
        <ele>14.6</ele>
        <time>2019-05-01T11:12:30Z</time>
      </trkpt>
      <trkpt lat="51.244850848004" lon="4.497254214107">
        <ele>15.4</ele>
        <time>2019-05-01T11:12:38Z</time>
      </trkpt>
      <trkpt lat="51.245038770202" lon="4.497333171605">
        <ele>17</ele>
        <time>2019-05-01T11:12:45Z</time>
      </trkpt>
      <trkpt lat="51.245421236299" lon="4.497367202119">
        <ele>19.4</ele>
        <time>2019-05-01T11:13:00Z</time>
      </trkpt>
      <trkpt lat="51.245611170153" lon="4.497366363929">
        <ele>17.4</ele>
        <time>2019-05-01T11:13:08Z</time>
      </trkpt>
      <trkpt lat="51.245814850323" lon="4.497402992832">
        <ele>15.4</ele>
        <time>2019-05-01T11:13:16Z</time>
      </trkpt>
      <trkpt lat="51.246017608484" lon="4.49742076246">
        <ele>13.8</ele>
        <time>2019-05-01T11:13:24Z</time>
      </trkpt>
      <trkpt lat="51.246201423551" lon="4.497430317826">
        <ele>13.8</ele>
        <time>2019-05-01T11:13:31Z</time>
      </trkpt>
      <trkpt lat="51.246385322437" lon="4.497454541517">
        <ele>13.8</ele>
        <time>2019-05-01T11:13:39Z</time>
      </trkpt>
      <trkpt lat="51.246565868563" lon="4.497465605625">
        <ele>11.8</ele>
        <time>2019-05-01T11:13:47Z</time>
      </trkpt>
      <trkpt lat="51.246761166833" lon="4.497475999181">
        <ele>13</ele>
        <time>2019-05-01T11:13:55Z</time>
      </trkpt>
      <trkpt lat="51.246964595546" lon="4.497479016665">
        <ele>13.6</ele>
        <time>2019-05-01T11:14:03Z</time>
      </trkpt>
      <trkpt lat="51.247147740061" lon="4.497501983071">
        <ele>13.2</ele>
        <time>2019-05-01T11:14:10Z</time>
      </trkpt>
      <trkpt lat="51.247344966168" lon="4.497486644194">
        <ele>10.6</ele>
        <time>2019-05-01T11:14:18Z</time>
      </trkpt>
      <trkpt lat="51.247529535606" lon="4.497496451017">
        <ele>7.4</ele>
        <time>2019-05-01T11:14:26Z</time>
      </trkpt>
      <trkpt lat="51.247715110872" lon="4.497525955305">
        <ele>6.6</ele>
        <time>2019-05-01T11:14:34Z</time>
      </trkpt>
      <trkpt lat="51.247906888744" lon="4.497563003303">
        <ele>7.2</ele>
        <time>2019-05-01T11:14:42Z</time>
      </trkpt>
      <trkpt lat="51.248084836481" lon="4.497615054902">
        <ele>7.6</ele>
        <time>2019-05-01T11:14:49Z</time>
      </trkpt>
      <trkpt lat="51.248259012363" lon="4.497687558337">
        <ele>7</ele>
        <time>2019-05-01T11:14:56Z</time>
      </trkpt>
      <trkpt lat="51.248436708643" lon="4.497732233864">
        <ele>7</ele>
        <time>2019-05-01T11:15:03Z</time>
      </trkpt>
      <trkpt lat="51.248617254769" lon="4.497768695129">
        <ele>8.8</ele>
        <time>2019-05-01T11:15:10Z</time>
      </trkpt>
      <trkpt lat="51.248805176967" lon="4.497773305174">
        <ele>11</ele>
        <time>2019-05-01T11:15:17Z</time>
      </trkpt>
      <trkpt lat="51.248990333138" lon="4.49778202235">
        <ele>11.4</ele>
        <time>2019-05-01T11:15:24Z</time>
      </trkpt>
      <trkpt lat="51.249190576729" lon="4.497733658787">
        <ele>10.6</ele>
        <time>2019-05-01T11:15:32Z</time>
      </trkpt>
      <trkpt lat="51.249389311578" lon="4.497728545828">
        <ele>10.6</ele>
        <time>2019-05-01T11:15:41Z</time>
      </trkpt>
      <trkpt lat="51.249573964835" lon="4.49772502543">
        <ele>14</ele>
        <time>2019-05-01T11:15:48Z</time>
      </trkpt>
      <trkpt lat="51.249773537874" lon="4.49773089276">
        <ele>14.4</ele>
        <time>2019-05-01T11:15:56Z</time>
      </trkpt>
      <trkpt lat="51.249971099257" lon="4.497777412305">
        <ele>13.4</ele>
        <time>2019-05-01T11:16:04Z</time>
      </trkpt>
      <trkpt lat="51.250160697835" lon="4.497824686221">
        <ele>7</ele>
        <time>2019-05-01T11:16:13Z</time>
      </trkpt>
      <trkpt lat="51.250350715508" lon="4.497834157768">
        <ele>5</ele>
        <time>2019-05-01T11:16:21Z</time>
      </trkpt>
      <trkpt lat="51.25054333157" lon="4.497833487216">
        <ele>5.8</ele>
        <time>2019-05-01T11:16:29Z</time>
      </trkpt>
      <trkpt lat="51.250625138914" lon="4.497803228557">
        <ele>5</ele>
        <time>2019-05-01T11:16:34Z</time>
      </trkpt>
      <trkpt lat="51.250795794398" lon="4.497904146633">
        <ele>7.6</ele>
        <time>2019-05-01T11:16:43Z</time>
      </trkpt>
      <trkpt lat="51.250909872057" lon="4.498180581695">
        <ele>14.4</ele>
        <time>2019-05-01T11:16:50Z</time>
      </trkpt>
      <trkpt lat="51.251077845333" lon="4.49825643789">
        <ele>19.2</ele>
        <time>2019-05-01T11:16:56Z</time>
      </trkpt>
      <trkpt lat="51.251275155259" lon="4.498194076554">
        <ele>22.4</ele>
        <time>2019-05-01T11:17:03Z</time>
      </trkpt>
      <trkpt lat="51.251447654761" lon="4.498038340852">
        <ele>23</ele>
        <time>2019-05-01T11:17:11Z</time>
      </trkpt>
      <trkpt lat="51.251620238082" lon="4.497915210741">
        <ele>22.4</ele>
        <time>2019-05-01T11:17:19Z</time>
      </trkpt>
      <trkpt lat="51.251820649311" lon="4.497889059213">
        <ele>22.4</ele>
        <time>2019-05-01T11:17:28Z</time>
      </trkpt>
      <trkpt lat="51.251945539621" lon="4.497671297451">
        <ele>18</ele>
        <time>2019-05-01T11:17:37Z</time>
      </trkpt>
      <trkpt lat="51.252122397711" lon="4.49751463974">
        <ele>17.8</ele>
        <time>2019-05-01T11:17:45Z</time>
      </trkpt>
      <trkpt lat="51.252248293849" lon="4.497318670918">
        <ele>17.8</ele>
        <time>2019-05-01T11:17:54Z</time>
      </trkpt>
      <trkpt lat="51.252300848362" lon="4.497016251966">
        <ele>16.6</ele>
        <time>2019-05-01T11:18:03Z</time>
      </trkpt>
      <trkpt lat="51.252381733697" lon="4.496734033393">
        <ele>17.8</ele>
        <time>2019-05-01T11:18:11Z</time>
      </trkpt>
      <trkpt lat="51.252467229077" lon="4.496443349101">
        <ele>21.8</ele>
        <time>2019-05-01T11:18:19Z</time>
      </trkpt>
      <trkpt lat="51.252527494938" lon="4.496171524084">
        <ele>20.4</ele>
        <time>2019-05-01T11:18:26Z</time>
      </trkpt>
      <trkpt lat="51.252579546537" lon="4.495882432353">
        <ele>19.6</ele>
        <time>2019-05-01T11:18:34Z</time>
      </trkpt>
      <trkpt lat="51.252640650588" lon="4.495609014775">
        <ele>19.6</ele>
        <time>2019-05-01T11:18:42Z</time>
      </trkpt>
      <trkpt lat="51.252701084087" lon="4.4953303166">
        <ele>19.2</ele>
        <time>2019-05-01T11:18:50Z</time>
      </trkpt>
      <trkpt lat="51.252744167053" lon="4.495029657847">
        <ele>18</ele>
        <time>2019-05-01T11:18:58Z</time>
      </trkpt>
      <trkpt lat="51.252799906688" lon="4.494609137924">
        <ele>19.4</ele>
        <time>2019-05-01T11:19:08Z</time>
      </trkpt>
      <trkpt lat="51.252849946631" lon="4.494331697034">
        <ele>17.6</ele>
        <time>2019-05-01T11:19:15Z</time>
      </trkpt>
      <trkpt lat="51.252908368474" lon="4.494055597248">
        <ele>16.2</ele>
        <time>2019-05-01T11:19:22Z</time>
      </trkpt>
      <trkpt lat="51.252970059258" lon="4.493766002603">
        <ele>14</ele>
        <time>2019-05-01T11:19:30Z</time>
      </trkpt>
      <trkpt lat="51.253053794439" lon="4.493473390474">
        <ele>11.6</ele>
        <time>2019-05-01T11:19:39Z</time>
      </trkpt>
      <trkpt lat="51.253128560987" lon="4.493165104192">
        <ele>11.6</ele>
        <time>2019-05-01T11:19:47Z</time>
      </trkpt>
      <trkpt lat="51.253214475462" lon="4.492886322198">
        <ele>13.2</ele>
        <time>2019-05-01T11:19:55Z</time>
      </trkpt>
      <trkpt lat="51.253275747151" lon="4.492602427245">
        <ele>16.8</ele>
        <time>2019-05-01T11:20:03Z</time>
      </trkpt>
      <trkpt lat="51.253353615002" lon="4.492342085431">
        <ele>19.8</ele>
        <time>2019-05-01T11:20:10Z</time>
      </trkpt>
      <trkpt lat="51.253457466743" lon="4.49210915243">
        <ele>18.6</ele>
        <time>2019-05-01T11:20:17Z</time>
      </trkpt>
      <trkpt lat="51.253597444473" lon="4.491876303248">
        <ele>20.8</ele>
        <time>2019-05-01T11:20:25Z</time>
      </trkpt>
      <trkpt lat="51.253714707254" lon="4.491637502917">
        <ele>21.2</ele>
        <time>2019-05-01T11:20:32Z</time>
      </trkpt>
      <trkpt lat="51.253887625851" lon="4.491601125471">
        <ele>18.8</ele>
        <time>2019-05-01T11:20:40Z</time>
      </trkpt>
      <trkpt lat="51.254022071527" lon="4.491828526418">
        <ele>18.6</ele>
        <time>2019-05-01T11:20:47Z</time>
      </trkpt>
      <trkpt lat="51.254156433384" lon="4.492039750298">
        <ele>18.8</ele>
        <time>2019-05-01T11:20:54Z</time>
      </trkpt>
      <trkpt lat="51.254288029214" lon="4.492240161527">
        <ele>19.4</ele>
        <time>2019-05-01T11:21:01Z</time>
      </trkpt>
      <trkpt lat="51.254413003343" lon="4.492451301588">
        <ele>21</ele>
        <time>2019-05-01T11:21:08Z</time>
      </trkpt>
      <trkpt lat="51.254551388512" lon="4.49268331258">
        <ele>21.2</ele>
        <time>2019-05-01T11:21:16Z</time>
      </trkpt>
      <trkpt lat="51.254672758424" lon="4.492920771807">
        <ele>20.2</ele>
        <time>2019-05-01T11:21:24Z</time>
      </trkpt>
      <trkpt lat="51.25477954383" lon="4.493174659558">
        <ele>18.8</ele>
        <time>2019-05-01T11:21:32Z</time>
      </trkpt>
      <trkpt lat="51.254912480764" lon="4.493390158207">
        <ele>21.8</ele>
        <time>2019-05-01T11:21:40Z</time>
      </trkpt>
      <trkpt lat="51.255048435182" lon="4.493614122575">
        <ele>22.4</ele>
        <time>2019-05-01T11:21:48Z</time>
      </trkpt>
      <trkpt lat="51.255168715447" lon="4.49384588211">
        <ele>21.6</ele>
        <time>2019-05-01T11:21:56Z</time>
      </trkpt>
      <trkpt lat="51.255282625468" lon="4.494097842024">
        <ele>22.8</ele>
        <time>2019-05-01T11:22:04Z</time>
      </trkpt>
      <trkpt lat="51.255407515778" lon="4.494327170808">
        <ele>25</ele>
        <time>2019-05-01T11:22:12Z</time>
      </trkpt>
      <trkpt lat="51.255541793816" lon="4.494561025818">
        <ele>26.8</ele>
        <time>2019-05-01T11:22:20Z</time>
      </trkpt>
      <trkpt lat="51.255673222008" lon="4.494777865571">
        <ele>34.4</ele>
        <time>2019-05-01T11:22:28Z</time>
      </trkpt>
      <trkpt lat="51.2558130321" lon="4.495005601794">
        <ele>35.4</ele>
        <time>2019-05-01T11:22:36Z</time>
      </trkpt>
      <trkpt lat="51.255918560221" lon="4.495244402125">
        <ele>41.2</ele>
        <time>2019-05-01T11:22:44Z</time>
      </trkpt>
      <trkpt lat="51.256044707816" lon="4.49549544003">
        <ele>45.8</ele>
        <time>2019-05-01T11:22:52Z</time>
      </trkpt>
      <trkpt lat="51.256184853184" lon="4.49572929504">
        <ele>52.2</ele>
        <time>2019-05-01T11:23:00Z</time>
      </trkpt>
      <trkpt lat="51.256319047403" lon="4.495964323516">
        <ele>52.2</ele>
        <time>2019-05-01T11:23:07Z</time>
      </trkpt>
      <trkpt lat="51.256452906346" lon="4.496178061966">
        <ele>53</ele>
        <time>2019-05-01T11:23:14Z</time>
      </trkpt>
      <trkpt lat="51.256589698954" lon="4.496422059075">
        <ele>51.8</ele>
        <time>2019-05-01T11:23:22Z</time>
      </trkpt>
      <trkpt lat="51.256699082749" lon="4.496681143604">
        <ele>48</ele>
        <time>2019-05-01T11:23:30Z</time>
      </trkpt>
      <trkpt lat="51.256842999972" lon="4.496908544551">
        <ele>43.6</ele>
        <time>2019-05-01T11:23:38Z</time>
      </trkpt>
      <trkpt lat="51.256987420109" lon="4.497124546114">
        <ele>34</ele>
        <time>2019-05-01T11:23:46Z</time>
      </trkpt>
      <trkpt lat="51.257142904354" lon="4.497313893235">
        <ele>31.2</ele>
        <time>2019-05-01T11:23:54Z</time>
      </trkpt>
      <trkpt lat="51.257277098573" lon="4.497538444336">
        <ele>29.2</ele>
        <time>2019-05-01T11:24:02Z</time>
      </trkpt>
      <trkpt lat="51.257434678293" lon="4.497742711239">
        <ele>28.4</ele>
        <time>2019-05-01T11:24:10Z</time>
      </trkpt>
      <trkpt lat="51.257611620202" lon="4.497880593494">
        <ele>27.4</ele>
        <time>2019-05-01T11:24:19Z</time>
      </trkpt>
      <trkpt lat="51.257756710891" lon="4.49785243031">
        <ele>25.4</ele>
        <time>2019-05-01T11:24:29Z</time>
      </trkpt>
      <trkpt lat="51.257733241571" lon="4.498120148196">
        <ele>24.6</ele>
        <time>2019-05-01T11:24:39Z</time>
      </trkpt>
      <trkpt lat="51.257873051663" lon="4.49833355137">
        <ele>25</ele>
        <time>2019-05-01T11:24:47Z</time>
      </trkpt>
      <trkpt lat="51.258025937519" lon="4.498518372265">
        <ele>24</ele>
        <time>2019-05-01T11:24:55Z</time>
      </trkpt>
      <trkpt lat="51.258183098144" lon="4.498703863712">
        <ele>24.6</ele>
        <time>2019-05-01T11:25:04Z</time>
      </trkpt>
      <trkpt lat="51.258407733064" lon="4.499027907966">
        <ele>21.8</ele>
        <time>2019-05-01T11:25:16Z</time>
      </trkpt>
      <trkpt lat="51.258558439626" lon="4.499231085222">
        <ele>20.6</ele>
        <time>2019-05-01T11:25:24Z</time>
      </trkpt>
      <trkpt lat="51.258710738749" lon="4.499438201971">
        <ele>19.8</ele>
        <time>2019-05-01T11:25:32Z</time>
      </trkpt>
      <trkpt lat="51.258861110035" lon="4.499632075318">
        <ele>17.8</ele>
        <time>2019-05-01T11:25:40Z</time>
      </trkpt>
      <trkpt lat="51.259002596507" lon="4.499845562311">
        <ele>15</ele>
        <time>2019-05-01T11:25:48Z</time>
      </trkpt>
      <trkpt lat="51.259146346092" lon="4.500050415947">
        <ele>14.6</ele>
        <time>2019-05-01T11:25:56Z</time>
      </trkpt>
      <trkpt lat="51.259302752346" lon="4.500248228787">
        <ele>14.4</ele>
        <time>2019-05-01T11:26:04Z</time>
      </trkpt>
      <trkpt lat="51.259448681225" lon="4.500470349137">
        <ele>14.6</ele>
        <time>2019-05-01T11:26:12Z</time>
      </trkpt>
      <trkpt lat="51.259585641471" lon="4.500671682375">
        <ele>17.6</ele>
        <time>2019-05-01T11:26:19Z</time>
      </trkpt>
      <trkpt lat="51.259725786839" lon="4.500855329804">
        <ele>18.4</ele>
        <time>2019-05-01T11:26:26Z</time>
      </trkpt>
      <trkpt lat="51.259855035737" lon="4.501096477067">
        <ele>18.4</ele>
        <time>2019-05-01T11:26:34Z</time>
      </trkpt>
      <trkpt lat="51.259974226355" lon="4.501343910755">
        <ele>16.4</ele>
        <time>2019-05-01T11:26:42Z</time>
      </trkpt>
      <trkpt lat="51.260093249335" lon="4.501581286163">
        <ele>13.4</ele>
        <time>2019-05-01T11:26:50Z</time>
      </trkpt>
      <trkpt lat="51.260210679754" lon="4.501820589408">
        <ele>10.6</ele>
        <time>2019-05-01T11:26:58Z</time>
      </trkpt>
      <trkpt lat="51.260334480417" lon="4.502061317576">
        <ele>9.4</ele>
        <time>2019-05-01T11:27:06Z</time>
      </trkpt>
      <trkpt lat="51.260467333532" lon="4.502294250577">
        <ele>7.2</ele>
        <time>2019-05-01T11:27:14Z</time>
      </trkpt>
      <trkpt lat="51.260622901596" lon="4.502505642095">
        <ele>10</ele>
        <time>2019-05-01T11:27:22Z</time>
      </trkpt>
      <trkpt lat="51.260761035308" lon="4.502746873177">
        <ele>11.8</ele>
        <time>2019-05-01T11:27:30Z</time>
      </trkpt>
      <trkpt lat="51.260894726613" lon="4.502966059862">
        <ele>16.4</ele>
        <time>2019-05-01T11:27:38Z</time>
      </trkpt>
      <trkpt lat="51.261029339927" lon="4.50318080414">
        <ele>20.2</ele>
        <time>2019-05-01T11:27:46Z</time>
      </trkpt>
      <trkpt lat="51.261162612137" lon="4.503408456544">
        <ele>21</ele>
        <time>2019-05-01T11:27:54Z</time>
      </trkpt>
      <trkpt lat="51.261280377832" lon="4.503644407029">
        <ele>20.4</ele>
        <time>2019-05-01T11:28:02Z</time>
      </trkpt>
      <trkpt lat="51.261404849047" lon="4.503867952302">
        <ele>17.4</ele>
        <time>2019-05-01T11:28:10Z</time>
      </trkpt>
      <trkpt lat="51.261536109601" lon="4.504090994661">
        <ele>17</ele>
        <time>2019-05-01T11:28:19Z</time>
      </trkpt>
      <trkpt lat="51.261666280508" lon="4.504331806648">
        <ele>17</ele>
        <time>2019-05-01T11:28:27Z</time>
      </trkpt>
      <trkpt lat="51.261797876338" lon="4.504538755759">
        <ele>16.8</ele>
        <time>2019-05-01T11:28:35Z</time>
      </trkpt>
      <trkpt lat="51.261929136892" lon="4.504761379023">
        <ele>13.6</ele>
        <time>2019-05-01T11:28:43Z</time>
      </trkpt>
      <trkpt lat="51.262054362478" lon="4.505002861562">
        <ele>10.6</ele>
        <time>2019-05-01T11:28:51Z</time>
      </trkpt>
      <trkpt lat="51.26217070325" lon="4.50525532439">
        <ele>9.6</ele>
        <time>2019-05-01T11:28:59Z</time>
      </trkpt>
      <trkpt lat="51.262217725709" lon="4.505341322684">
        <ele>9.6</ele>
        <time>2019-05-01T11:29:02Z</time>
      </trkpt>
      <trkpt lat="51.26233834125" lon="4.505588756372">
        <ele>11.4</ele>
        <time>2019-05-01T11:29:10Z</time>
      </trkpt>
      <trkpt lat="51.262467673967" lon="4.505827724341">
        <ele>14.6</ele>
        <time>2019-05-01T11:29:18Z</time>
      </trkpt>
      <trkpt lat="51.26258141635" lon="4.506082869377">
        <ele>13.8</ele>
        <time>2019-05-01T11:29:26Z</time>
      </trkpt>
      <trkpt lat="51.262688453213" lon="4.506315802378">
        <ele>11.4</ele>
        <time>2019-05-01T11:29:34Z</time>
      </trkpt>
      <trkpt lat="51.262832621893" lon="4.506540688755">
        <ele>14.4</ele>
        <time>2019-05-01T11:29:42Z</time>
      </trkpt>
      <trkpt lat="51.262966313198" lon="4.506738753052">
        <ele>18</ele>
        <time>2019-05-01T11:29:49Z</time>
      </trkpt>
      <trkpt lat="51.26311534338" lon="4.506944444878">
        <ele>21.4</ele>
        <time>2019-05-01T11:29:57Z</time>
      </trkpt>
      <trkpt lat="51.263238054396" lon="4.507160614079">
        <ele>20.4</ele>
        <time>2019-05-01T11:30:05Z</time>
      </trkpt>
      <trkpt lat="51.263352886426" lon="4.507415088563">
        <ele>19.4</ele>
        <time>2019-05-01T11:30:14Z</time>
      </trkpt>
      <trkpt lat="51.263373757357" lon="4.507448280887">
        <ele>19.2</ele>
        <time>2019-05-01T11:30:16Z</time>
      </trkpt>
      <trkpt lat="51.263529912154" lon="4.50732984464">
        <ele>18.4</ele>
        <time>2019-05-01T11:30:24Z</time>
      </trkpt>
      <trkpt lat="51.263563188297" lon="4.507345686431">
        <ele>17.8</ele>
        <time>2019-05-01T11:30:26Z</time>
      </trkpt>
      <trkpt lat="51.263666956219" lon="4.507580379631">
        <ele>13.6</ele>
        <time>2019-05-01T11:30:34Z</time>
      </trkpt>
      <trkpt lat="51.263797797678" lon="4.507813899365">
        <ele>8.6</ele>
        <time>2019-05-01T11:30:42Z</time>
      </trkpt>
      <trkpt lat="51.263919335228" lon="4.508005677237">
        <ele>11</ele>
        <time>2019-05-01T11:30:49Z</time>
      </trkpt>
      <trkpt lat="51.264040956597" lon="4.507973239284">
        <ele>12.6</ele>
        <time>2019-05-01T11:30:54Z</time>
      </trkpt>
      <trkpt lat="51.264227789148" lon="4.508050436583">
        <ele>14.6</ele>
        <time>2019-05-01T11:31:02Z</time>
      </trkpt>
      <trkpt lat="51.264390900922" lon="4.507912470509">
        <ele>17.6</ele>
        <time>2019-05-01T11:31:09Z</time>
      </trkpt>
      <trkpt lat="51.264565998813" lon="4.507770229666">
        <ele>17.6</ele>
        <time>2019-05-01T11:31:17Z</time>
      </trkpt>
      <trkpt lat="51.264743359817" lon="4.507970305619">
        <ele>16.4</ele>
        <time>2019-05-01T11:31:25Z</time>
      </trkpt>
      <trkpt lat="51.264858946218" lon="4.508235173659">
        <ele>18.8</ele>
        <time>2019-05-01T11:31:32Z</time>
      </trkpt>
      <trkpt lat="51.264937316983" lon="4.508535580955">
        <ele>16.8</ele>
        <time>2019-05-01T11:31:39Z</time>
      </trkpt>
      <trkpt lat="51.265049299167" lon="4.50877823696">
        <ele>15.4</ele>
        <time>2019-05-01T11:31:46Z</time>
      </trkpt>
      <trkpt lat="51.265193300209" lon="4.508983090596">
        <ele>16.2</ele>
        <time>2019-05-01T11:31:54Z</time>
      </trkpt>
      <trkpt lat="51.26529212281" lon="4.50921996309">
        <ele>17.2</ele>
        <time>2019-05-01T11:32:01Z</time>
      </trkpt>
      <trkpt lat="51.265429250694" lon="4.509441999621">
        <ele>15.6</ele>
        <time>2019-05-01T11:32:09Z</time>
      </trkpt>
      <trkpt lat="51.265529917313" lon="4.509707705851">
        <ele>14.8</ele>
        <time>2019-05-01T11:32:17Z</time>
      </trkpt>
      <trkpt lat="51.265635445434" lon="4.509959162851">
        <ele>16.4</ele>
        <time>2019-05-01T11:32:25Z</time>
      </trkpt>
      <trkpt lat="51.265657741288" lon="4.510164854677">
        <ele>15.8</ele>
        <time>2019-05-01T11:32:31Z</time>
      </trkpt>
      <trkpt lat="51.265529498218" lon="4.510393680547">
        <ele>11.4</ele>
        <time>2019-05-01T11:32:42Z</time>
      </trkpt>
      <trkpt lat="51.265412486894" lon="4.510381945887">
        <ele>8.8</ele>
        <time>2019-05-01T11:32:48Z</time>
      </trkpt>
      <trkpt lat="51.265413827998" lon="4.510356297273">
        <ele>9.8</ele>
        <time>2019-05-01T11:32:50Z</time>
      </trkpt>
      <trkpt lat="51.265510219848" lon="4.510376581471">
        <ele>12</ele>
        <time>2019-05-01T11:32:55Z</time>
      </trkpt>
      <trkpt lat="51.265623878412" lon="4.510279016155">
        <ele>14.8</ele>
        <time>2019-05-01T11:33:01Z</time>
      </trkpt>
      <trkpt lat="51.265620525652" lon="4.510250769152">
        <ele>14.8</ele>
        <time>2019-05-01T11:33:03Z</time>
      </trkpt>
      <trkpt lat="51.265556487936" lon="4.510374318358">
        <ele>13</ele>
        <time>2019-05-01T11:33:10Z</time>
      </trkpt>
      <trkpt lat="51.265384575167" lon="4.510356129635">
        <ele>12.8</ele>
        <time>2019-05-01T11:33:18Z</time>
      </trkpt>
      <trkpt lat="51.265226911628" lon="4.510186982893">
        <ele>13</ele>
        <time>2019-05-01T11:33:26Z</time>
      </trkpt>
      <trkpt lat="51.265101350766" lon="4.509935442074">
        <ele>12.2</ele>
        <time>2019-05-01T11:33:34Z</time>
      </trkpt>
      <trkpt lat="51.264991966971" lon="4.509703933996">
        <ele>12.4</ele>
        <time>2019-05-01T11:33:41Z</time>
      </trkpt>
      <trkpt lat="51.264845786635" lon="4.509486842786">
        <ele>14</ele>
        <time>2019-05-01T11:33:49Z</time>
      </trkpt>
      <trkpt lat="51.264707233828" lon="4.509271511775">
        <ele>12.8</ele>
        <time>2019-05-01T11:33:57Z</time>
      </trkpt>
      <trkpt lat="51.264582092061" lon="4.509055091117">
        <ele>13.8</ele>
        <time>2019-05-01T11:34:05Z</time>
      </trkpt>
      <trkpt lat="51.264455944466" lon="4.508824756505">
        <ele>14.4</ele>
        <time>2019-05-01T11:34:13Z</time>
      </trkpt>
      <trkpt lat="51.264323510446" lon="4.508601965603">
        <ele>12.2</ele>
        <time>2019-05-01T11:34:21Z</time>
      </trkpt>
      <trkpt lat="51.264212785547" lon="4.508361237435">
        <ele>9.2</ele>
        <time>2019-05-01T11:34:29Z</time>
      </trkpt>
      <trkpt lat="51.264102312105" lon="4.50809427392">
        <ele>6.8</ele>
        <time>2019-05-01T11:34:37Z</time>
      </trkpt>
      <trkpt lat="51.264065515564" lon="4.508069044401">
        <ele>6</ele>
        <time>2019-05-01T11:34:39Z</time>
      </trkpt>
      <trkpt lat="51.263989994645" lon="4.508149845917">
        <ele>6.4</ele>
        <time>2019-05-01T11:34:44Z</time>
      </trkpt>
      <trkpt lat="51.264116226059" lon="4.508378504149">
        <ele>6.8</ele>
        <time>2019-05-01T11:34:52Z</time>
      </trkpt>
      <trkpt lat="51.264235751953" lon="4.50860054068">
        <ele>7</ele>
        <time>2019-05-01T11:35:00Z</time>
      </trkpt>
      <trkpt lat="51.264349075241" lon="4.50882601379">
        <ele>7</ele>
        <time>2019-05-01T11:35:08Z</time>
      </trkpt>
      <trkpt lat="51.264469523144" lon="4.509046290122">
        <ele>9.6</ele>
        <time>2019-05-01T11:35:16Z</time>
      </trkpt>
      <trkpt lat="51.264472121533" lon="4.509188028051">
        <ele>10</ele>
        <time>2019-05-01T11:35:21Z</time>
      </trkpt>
      <trkpt lat="51.264288138828" lon="4.509124577068">
        <ele>12.2</ele>
        <time>2019-05-01T11:35:30Z</time>
      </trkpt>
      <trkpt lat="51.264137432266" lon="4.508933218291">
        <ele>16.4</ele>
        <time>2019-05-01T11:35:37Z</time>
      </trkpt>
      <trkpt lat="51.264005417341" lon="4.508727861741">
        <ele>17.4</ele>
        <time>2019-05-01T11:35:44Z</time>
      </trkpt>
      <trkpt lat="51.263968285524" lon="4.508698022177">
        <ele>17.4</ele>
        <time>2019-05-01T11:35:46Z</time>
      </trkpt>
      <trkpt lat="51.263932410992" lon="4.508712941959">
        <ele>17.4</ele>
        <time>2019-05-01T11:35:48Z</time>
      </trkpt>
      <trkpt lat="51.263763515707" lon="4.50885367406">
        <ele>17.6</ele>
        <time>2019-05-01T11:35:56Z</time>
      </trkpt>
      <trkpt lat="51.263572659844" lon="4.508945372046">
        <ele>16.8</ele>
        <time>2019-05-01T11:36:05Z</time>
      </trkpt>
      <trkpt lat="51.263378870316" lon="4.508997339826">
        <ele>14.8</ele>
        <time>2019-05-01T11:36:14Z</time>
      </trkpt>
      <trkpt lat="51.263192875955" lon="4.509043775552">
        <ele>13.8</ele>
        <time>2019-05-01T11:36:22Z</time>
      </trkpt>
      <trkpt lat="51.263005121395" lon="4.508936738689">
        <ele>12.8</ele>
        <time>2019-05-01T11:36:31Z</time>
      </trkpt>
      <trkpt lat="51.26283622611" lon="4.508813105664">
        <ele>11.6</ele>
        <time>2019-05-01T11:36:39Z</time>
      </trkpt>
      <trkpt lat="51.262654255061" lon="4.5086743014">
        <ele>9.6</ele>
        <time>2019-05-01T11:36:48Z</time>
      </trkpt>
      <trkpt lat="51.262479660084" lon="4.508561816302">
        <ele>6.6</ele>
        <time>2019-05-01T11:36:56Z</time>
      </trkpt>
      <trkpt lat="51.262289474773" lon="4.508486798297">
        <ele>7</ele>
        <time>2019-05-01T11:37:05Z</time>
      </trkpt>
      <trkpt lat="51.262100127652" lon="4.508362578539">
        <ele>4.6</ele>
        <time>2019-05-01T11:37:14Z</time>
      </trkpt>
      <trkpt lat="51.26192678996" lon="4.50823508984">
        <ele>5.6</ele>
        <time>2019-05-01T11:37:22Z</time>
      </trkpt>
      <trkpt lat="51.261752865535" lon="4.508132579203">
        <ele>6</ele>
        <time>2019-05-01T11:37:29Z</time>
      </trkpt>
      <trkpt lat="51.261573995789" lon="4.508021016114">
        <ele>6.8</ele>
        <time>2019-05-01T11:37:36Z</time>
      </trkpt>
      <trkpt lat="51.261262692023" lon="4.507824460559">
        <ele>12</ele>
        <time>2019-05-01T11:37:50Z</time>
      </trkpt>
      <trkpt lat="51.26108943815" lon="4.507704347932">
        <ele>10.2</ele>
        <time>2019-05-01T11:37:59Z</time>
      </trkpt>
      <trkpt lat="51.260896905907" lon="4.507622289131">
        <ele>7.8</ele>
        <time>2019-05-01T11:38:08Z</time>
      </trkpt>
      <trkpt lat="51.260729687002" lon="4.507509049662">
        <ele>8</ele>
        <time>2019-05-01T11:38:16Z</time>
      </trkpt>
      <trkpt lat="51.260551739265" lon="4.507379968402">
        <ele>4.2</ele>
        <time>2019-05-01T11:38:25Z</time>
      </trkpt>
      <trkpt lat="51.26037362389" lon="4.507245438907">
        <ele>5.2</ele>
        <time>2019-05-01T11:38:33Z</time>
      </trkpt>
      <trkpt lat="51.260197184895" lon="4.507147203039">
        <ele>5.8</ele>
        <time>2019-05-01T11:38:41Z</time>
      </trkpt>
      <trkpt lat="51.260004736471" lon="4.5070649766">
        <ele>5.6</ele>
        <time>2019-05-01T11:38:49Z</time>
      </trkpt>
      <trkpt lat="51.259813964427" lon="4.506979397401">
        <ele>5</ele>
        <time>2019-05-01T11:38:56Z</time>
      </trkpt>
      <trkpt lat="51.259635429957" lon="4.506868588683">
        <ele>6</ele>
        <time>2019-05-01T11:39:03Z</time>
      </trkpt>
      <trkpt lat="51.259455638202" lon="4.506766916236">
        <ele>7.2</ele>
        <time>2019-05-01T11:39:10Z</time>
      </trkpt>
      <trkpt lat="51.259281378501" lon="4.506671194938">
        <ele>6.8</ele>
        <time>2019-05-01T11:39:17Z</time>
      </trkpt>
      <trkpt lat="51.259098066348" lon="4.506559715668">
        <ele>7.6</ele>
        <time>2019-05-01T11:39:25Z</time>
      </trkpt>
      <trkpt lat="51.258911317616" lon="4.506453433176">
        <ele>8</ele>
        <time>2019-05-01T11:39:33Z</time>
      </trkpt>
      <trkpt lat="51.258730855309" lon="4.506298703302">
        <ele>9.2</ele>
        <time>2019-05-01T11:39:41Z</time>
      </trkpt>
      <trkpt lat="51.258537065781" lon="4.506212788827">
        <ele>6.4</ele>
        <time>2019-05-01T11:39:49Z</time>
      </trkpt>
      <trkpt lat="51.25834939504" lon="4.50610357267">
        <ele>5</ele>
        <time>2019-05-01T11:39:57Z</time>
      </trkpt>
      <trkpt lat="51.258240597978" lon="4.505995110884">
        <ele>5.8</ele>
        <time>2019-05-01T11:40:04Z</time>
      </trkpt>
      <trkpt lat="51.258239759788" lon="4.506006677906">
        <ele>5.8</ele>
        <time>2019-05-01T11:40:07Z</time>
      </trkpt>
      <trkpt lat="51.25806860139" lon="4.505889666582">
        <ele>7.4</ele>
        <time>2019-05-01T11:40:15Z</time>
      </trkpt>
      <trkpt lat="51.257876739699" lon="4.505780953339">
        <ele>8.6</ele>
        <time>2019-05-01T11:40:23Z</time>
      </trkpt>
      <trkpt lat="51.257705329844" lon="4.505683304204">
        <ele>7.2</ele>
        <time>2019-05-01T11:40:30Z</time>
      </trkpt>
      <trkpt lat="51.257517659103" lon="4.505584900698">
        <ele>5.4</ele>
        <time>2019-05-01T11:40:38Z</time>
      </trkpt>
      <trkpt lat="51.257359157374" lon="4.505445677339">
        <ele>6</ele>
        <time>2019-05-01T11:40:46Z</time>
      </trkpt>
      <trkpt lat="51.257184478578" lon="4.505322463409">
        <ele>4.6</ele>
        <time>2019-05-01T11:40:53Z</time>
      </trkpt>
      <trkpt lat="51.257019103691" lon="4.505178378548">
        <ele>4.4</ele>
        <time>2019-05-01T11:41:01Z</time>
      </trkpt>
      <trkpt lat="51.256847442379" lon="4.505008980349">
        <ele>4.4</ele>
        <time>2019-05-01T11:41:09Z</time>
      </trkpt>
      <trkpt lat="51.256665136054" lon="4.504877635976">
        <ele>3.8</ele>
        <time>2019-05-01T11:41:17Z</time>
      </trkpt>
      <trkpt lat="51.256490792534" lon="4.504741597739">
        <ele>2.8</ele>
        <time>2019-05-01T11:41:25Z</time>
      </trkpt>
      <trkpt lat="51.25629582954" lon="4.504631124297">
        <ele>4.6</ele>
        <time>2019-05-01T11:41:33Z</time>
      </trkpt>
      <trkpt lat="51.256119558183" lon="4.504545712736">
        <ele>6.4</ele>
        <time>2019-05-01T11:41:40Z</time>
      </trkpt>
      <trkpt lat="51.255944125016" lon="4.504393078337">
        <ele>7</ele>
        <time>2019-05-01T11:41:48Z</time>
      </trkpt>
      <trkpt lat="51.255779336862" lon="4.504267349837">
        <ele>9</ele>
        <time>2019-05-01T11:41:55Z</time>
      </trkpt>
      <trkpt lat="51.255600886211" lon="4.504177244412">
        <ele>8</ele>
        <time>2019-05-01T11:42:02Z</time>
      </trkpt>
      <trkpt lat="51.255410197986" lon="4.504099125104">
        <ele>8.6</ele>
        <time>2019-05-01T11:42:10Z</time>
      </trkpt>
      <trkpt lat="51.255245074556" lon="4.503924194851">
        <ele>11.2</ele>
        <time>2019-05-01T11:42:18Z</time>
      </trkpt>
      <trkpt lat="51.25508715956" lon="4.503743397268">
        <ele>14</ele>
        <time>2019-05-01T11:42:26Z</time>
      </trkpt>
      <trkpt lat="51.254914660058" lon="4.503652537472">
        <ele>13.4</ele>
        <time>2019-05-01T11:42:33Z</time>
      </trkpt>
      <trkpt lat="51.254731767" lon="4.503605850289">
        <ele>9.2</ele>
        <time>2019-05-01T11:42:41Z</time>
      </trkpt>
      <trkpt lat="51.254653899149" lon="4.503507195326">
        <ele>9.8</ele>
        <time>2019-05-01T11:42:47Z</time>
      </trkpt>
      <trkpt lat="51.254514172876" lon="4.503364703026">
        <ele>10</ele>
        <time>2019-05-01T11:42:55Z</time>
      </trkpt>
      <trkpt lat="51.254341338098" lon="4.503289349745">
        <ele>13.4</ele>
        <time>2019-05-01T11:43:01Z</time>
      </trkpt>
      <trkpt lat="51.254159786144" lon="4.503223216554">
        <ele>13</ele>
        <time>2019-05-01T11:43:09Z</time>
      </trkpt>
      <trkpt lat="51.253974797611" lon="4.503193544628">
        <ele>10.6</ele>
        <time>2019-05-01T11:43:16Z</time>
      </trkpt>
      <trkpt lat="51.253797520426" lon="4.503056584382">
        <ele>10</ele>
        <time>2019-05-01T11:43:27Z</time>
      </trkpt>
      <trkpt lat="51.253657710334" lon="4.502827758512">
        <ele>12.6</ele>
        <time>2019-05-01T11:43:35Z</time>
      </trkpt>
      <trkpt lat="51.253528377617" lon="4.50256305811">
        <ele>18.8</ele>
        <time>2019-05-01T11:43:44Z</time>
      </trkpt>
      <trkpt lat="51.253373228648" lon="4.502364071804">
        <ele>23.2</ele>
        <time>2019-05-01T11:43:53Z</time>
      </trkpt>
      <trkpt lat="51.253294187331" lon="4.502287545057">
        <ele>22.2</ele>
        <time>2019-05-01T11:43:57Z</time>
      </trkpt>
      <trkpt lat="51.253167285365" lon="4.502065927621">
        <ele>21.8</ele>
        <time>2019-05-01T11:44:05Z</time>
      </trkpt>
      <trkpt lat="51.253065026185" lon="4.501806926911">
        <ele>24.6</ele>
        <time>2019-05-01T11:44:12Z</time>
      </trkpt>
      <trkpt lat="51.252921863333" lon="4.501587740226">
        <ele>27</ele>
        <time>2019-05-01T11:44:18Z</time>
      </trkpt>
      <trkpt lat="51.252777024101" lon="4.501355645415">
        <ele>28.8</ele>
        <time>2019-05-01T11:44:25Z</time>
      </trkpt>
      <trkpt lat="51.252661605338" lon="4.501098656361">
        <ele>30</ele>
        <time>2019-05-01T11:44:33Z</time>
      </trkpt>
      <trkpt lat="51.252537050304" lon="4.500870417224">
        <ele>31.8</ele>
        <time>2019-05-01T11:44:40Z</time>
      </trkpt>
      <trkpt lat="51.252421966817" lon="4.500626755391">
        <ele>37.2</ele>
        <time>2019-05-01T11:44:48Z</time>
      </trkpt>
      <trkpt lat="51.252293723747" lon="4.500375717486">
        <ele>37.6</ele>
        <time>2019-05-01T11:44:56Z</time>
      </trkpt>
      <trkpt lat="51.252164977763" lon="4.500132810024">
        <ele>37.6</ele>
        <time>2019-05-01T11:45:04Z</time>
      </trkpt>
      <trkpt lat="51.252061461298" lon="4.499855620591">
        <ele>44.6</ele>
        <time>2019-05-01T11:45:13Z</time>
      </trkpt>
      <trkpt lat="51.251947132182" lon="4.499626962359">
        <ele>48.8</ele>
        <time>2019-05-01T11:45:21Z</time>
      </trkpt>
      <trkpt lat="51.25182995322" lon="4.499376846463">
        <ele>54</ele>
        <time>2019-05-01T11:45:29Z</time>
      </trkpt>
      <trkpt lat="51.251673966061" lon="4.499183392211">
        <ele>55.2</ele>
        <time>2019-05-01T11:45:37Z</time>
      </trkpt>
      <trkpt lat="51.251513452676" lon="4.498978035661">
        <ele>56.6</ele>
        <time>2019-05-01T11:45:45Z</time>
      </trkpt>
      <trkpt lat="51.251422006147" lon="4.498723812634">
        <ele>52.2</ele>
        <time>2019-05-01T11:45:51Z</time>
      </trkpt>
      <trkpt lat="51.251317483854" lon="4.498489538529">
        <ele>47.6</ele>
        <time>2019-05-01T11:45:57Z</time>
      </trkpt>
      <trkpt lat="51.251231317922" lon="4.498196172029">
        <ele>45.2</ele>
        <time>2019-05-01T11:46:04Z</time>
      </trkpt>
      <trkpt lat="51.251177589943" lon="4.497894507448">
        <ele>45.4</ele>
        <time>2019-05-01T11:46:11Z</time>
      </trkpt>
      <trkpt lat="51.251056890583" lon="4.497719744833">
        <ele>36.6</ele>
        <time>2019-05-01T11:46:17Z</time>
      </trkpt>
      <trkpt lat="51.250877685561" lon="4.497812113371">
        <ele>22.6</ele>
        <time>2019-05-01T11:46:22Z</time>
      </trkpt>
      <trkpt lat="51.250686159146" lon="4.497856537441">
        <ele>16.2</ele>
        <time>2019-05-01T11:46:30Z</time>
      </trkpt>
      <trkpt lat="51.250477366017" lon="4.497798450874">
        <ele>15.4</ele>
        <time>2019-05-01T11:46:38Z</time>
      </trkpt>
      <trkpt lat="51.250295311149" lon="4.497824686221">
        <ele>17.2</ele>
        <time>2019-05-01T11:46:47Z</time>
      </trkpt>
      <trkpt lat="51.250109652064" lon="4.497852597948">
        <ele>17.4</ele>
        <time>2019-05-01T11:46:55Z</time>
      </trkpt>
      <trkpt lat="51.249926759006" lon="4.497828793352">
        <ele>18.2</ele>
        <time>2019-05-01T11:47:02Z</time>
      </trkpt>
      <trkpt lat="51.249744033586" lon="4.497862237133">
        <ele>18.6</ele>
        <time>2019-05-01T11:47:09Z</time>
      </trkpt>
      <trkpt lat="51.249621406389" lon="4.498089135166">
        <ele>17.4</ele>
        <time>2019-05-01T11:47:15Z</time>
      </trkpt>
      <trkpt lat="51.24947296294" lon="4.498243613583">
        <ele>17.6</ele>
        <time>2019-05-01T11:47:20Z</time>
      </trkpt>
      <trkpt lat="51.249305576397" lon="4.498150742131">
        <ele>15</ele>
        <time>2019-05-01T11:47:27Z</time>
      </trkpt>
      <trkpt lat="51.249218907551" lon="4.497898949855">
        <ele>13.6</ele>
        <time>2019-05-01T11:47:34Z</time>
      </trkpt>
      <trkpt lat="51.249020172702" lon="4.497873301241">
        <ele>10.2</ele>
        <time>2019-05-01T11:47:42Z</time>
      </trkpt>
      <trkpt lat="51.248815319066" lon="4.497903224624">
        <ele>8.8</ele>
        <time>2019-05-01T11:47:50Z</time>
      </trkpt>
      <trkpt lat="51.24861633276" lon="4.497898111665">
        <ele>8</ele>
        <time>2019-05-01T11:47:57Z</time>
      </trkpt>
      <trkpt lat="51.248413239323" lon="4.497931471627">
        <ele>9</ele>
        <time>2019-05-01T11:48:04Z</time>
      </trkpt>
      <trkpt lat="51.248228753704" lon="4.497995090248">
        <ele>7.4</ele>
        <time>2019-05-01T11:48:11Z</time>
      </trkpt>
      <trkpt lat="51.248040412411" lon="4.497991737488">
        <ele>6.6</ele>
        <time>2019-05-01T11:48:20Z</time>
      </trkpt>
      <trkpt lat="51.248027755742" lon="4.497959970087">
        <ele>6.8</ele>
        <time>2019-05-01T11:48:21Z</time>
      </trkpt>
      <trkpt lat="51.247972267564" lon="4.497815885226">
        <ele>7</ele>
        <time>2019-05-01T11:48:26Z</time>
      </trkpt>
      <trkpt lat="51.247778729493" lon="4.497817393968">
        <ele>5</ele>
        <time>2019-05-01T11:48:33Z</time>
      </trkpt>
      <trkpt lat="51.247592651313" lon="4.497781016522">
        <ele>4</ele>
        <time>2019-05-01T11:48:39Z</time>
      </trkpt>
      <trkpt lat="51.247401041079" lon="4.49775520027">
        <ele>3.2</ele>
        <time>2019-05-01T11:48:46Z</time>
      </trkpt>
      <trkpt lat="51.247219405306" lon="4.497750087311">
        <ele>1.2</ele>
        <time>2019-05-01T11:48:53Z</time>
      </trkpt>
      <trkpt lat="51.247023520303" lon="4.497753859166">
        <ele>0.6</ele>
        <time>2019-05-01T11:49:00Z</time>
      </trkpt>
      <trkpt lat="51.246838196494" lon="4.497739777574">
        <ele>3.6</ele>
        <time>2019-05-01T11:49:07Z</time>
      </trkpt>
      <trkpt lat="51.246657985644" lon="4.497732401502">
        <ele>3.8</ele>
        <time>2019-05-01T11:49:14Z</time>
      </trkpt>
      <trkpt lat="51.246464531392" lon="4.497740364307">
        <ele>6</ele>
        <time>2019-05-01T11:49:21Z</time>
      </trkpt>
      <trkpt lat="51.246264287801" lon="4.497734832253">
        <ele>7.4</ele>
        <time>2019-05-01T11:49:29Z</time>
      </trkpt>
      <trkpt lat="51.246078880173" lon="4.497717146444">
        <ele>7.6</ele>
        <time>2019-05-01T11:49:36Z</time>
      </trkpt>
      <trkpt lat="51.245819041273" lon="4.497684708491">
        <ele>7.4</ele>
        <time>2019-05-01T11:49:45Z</time>
      </trkpt>
      <trkpt lat="51.245630280885" lon="4.497650845615">
        <ele>6.6</ele>
        <time>2019-05-01T11:49:54Z</time>
      </trkpt>
      <trkpt lat="51.245435485529" lon="4.497600721853">
        <ele>6.8</ele>
        <time>2019-05-01T11:50:02Z</time>
      </trkpt>
      <trkpt lat="51.245238594698" lon="4.497624526449">
        <ele>7.6</ele>
        <time>2019-05-01T11:50:10Z</time>
      </trkpt>
      <trkpt lat="51.245044721351" lon="4.497693006572">
        <ele>8.6</ele>
        <time>2019-05-01T11:50:20Z</time>
      </trkpt>
      <trkpt lat="51.244880771387" lon="4.497831810836">
        <ele>10.6</ele>
        <time>2019-05-01T11:50:28Z</time>
      </trkpt>
      <trkpt lat="51.244712965749" lon="4.497964663951">
        <ele>13.2</ele>
        <time>2019-05-01T11:50:36Z</time>
      </trkpt>
      <trkpt lat="51.244539041324" lon="4.498129955019">
        <ele>14</ele>
        <time>2019-05-01T11:50:45Z</time>
      </trkpt>
      <trkpt lat="51.244381461604" lon="4.498304885272">
        <ele>14.6</ele>
        <time>2019-05-01T11:50:52Z</time>
      </trkpt>
      <trkpt lat="51.244227486101" lon="4.498455675653">
        <ele>16.8</ele>
        <time>2019-05-01T11:50:59Z</time>
      </trkpt>
      <trkpt lat="51.244045598871" lon="4.498540416662">
        <ele>18.6</ele>
        <time>2019-05-01T11:51:06Z</time>
      </trkpt>
      <trkpt lat="51.243878547604" lon="4.49864284348">
        <ele>18</ele>
        <time>2019-05-01T11:51:14Z</time>
      </trkpt>
      <trkpt lat="51.243708059758" lon="4.498698247839">
        <ele>17.8</ele>
        <time>2019-05-01T11:51:22Z</time>
      </trkpt>
      <trkpt lat="51.243565483639" lon="4.498473026186">
        <ele>13.2</ele>
        <time>2019-05-01T11:51:30Z</time>
      </trkpt>
      <trkpt lat="51.243429110126" lon="4.498272195862">
        <ele>6.6</ele>
        <time>2019-05-01T11:51:37Z</time>
      </trkpt>
      <trkpt lat="51.243294748269" lon="4.498059211783">
        <ele>0.4</ele>
        <time>2019-05-01T11:51:44Z</time>
      </trkpt>
      <trkpt lat="51.243176312022" lon="4.497824853859">
        <ele>0</ele>
        <time>2019-05-01T11:51:51Z</time>
      </trkpt>
      <trkpt lat="51.243059216879" lon="4.497597201455">
        <ele>0</ele>
        <time>2019-05-01T11:51:58Z</time>
      </trkpt>
      <trkpt lat="51.242959723726" lon="4.497353791079">
        <ele>0</ele>
        <time>2019-05-01T11:52:05Z</time>
      </trkpt>
      <trkpt lat="51.242864337704" lon="4.497081211691">
        <ele>0</ele>
        <time>2019-05-01T11:52:13Z</time>
      </trkpt>
      <trkpt lat="51.242740369403" lon="4.496831766347">
        <ele>0</ele>
        <time>2019-05-01T11:52:21Z</time>
      </trkpt>
      <trkpt lat="51.24262075969" lon="4.496570418705">
        <ele>0</ele>
        <time>2019-05-01T11:52:29Z</time>
      </trkpt>
      <trkpt lat="51.242534845215" lon="4.496307813778">
        <ele>0</ele>
        <time>2019-05-01T11:52:37Z</time>
      </trkpt>
      <trkpt lat="51.242472986793" lon="4.496001287695">
        <ele>0</ele>
        <time>2019-05-01T11:52:46Z</time>
      </trkpt>
      <trkpt lat="51.242429317094" lon="4.495716303095">
        <ele>1.4</ele>
        <time>2019-05-01T11:52:53Z</time>
      </trkpt>
      <trkpt lat="51.24237768459" lon="4.495416231075">
        <ele>3.8</ele>
        <time>2019-05-01T11:53:00Z</time>
      </trkpt>
      <trkpt lat="51.242307025173" lon="4.495112135743">
        <ele>6.2</ele>
        <time>2019-05-01T11:53:08Z</time>
      </trkpt>
      <trkpt lat="51.242250447348" lon="4.49483159355">
        <ele>9.8</ele>
        <time>2019-05-01T11:53:15Z</time>
      </trkpt>
      <trkpt lat="51.242222116526" lon="4.494524983648">
        <ele>13.4</ele>
        <time>2019-05-01T11:53:22Z</time>
      </trkpt>
      <trkpt lat="51.242182805415" lon="4.494241843066">
        <ele>16.2</ele>
        <time>2019-05-01T11:53:29Z</time>
      </trkpt>
      <trkpt lat="51.242116504586" lon="4.493953673344">
        <ele>20.4</ele>
        <time>2019-05-01T11:53:37Z</time>
      </trkpt>
      <trkpt lat="51.242042324771" lon="4.493652176401">
        <ele>22.6</ele>
        <time>2019-05-01T11:53:45Z</time>
      </trkpt>
      <trkpt lat="51.242011060284" lon="4.49333961535">
        <ele>20.8</ele>
        <time>2019-05-01T11:53:53Z</time>
      </trkpt>
      <trkpt lat="51.241990273172" lon="4.49305295437">
        <ele>19.4</ele>
        <time>2019-05-01T11:54:01Z</time>
      </trkpt>
      <trkpt lat="51.241954314821" lon="4.492763862639">
        <ele>19.2</ele>
        <time>2019-05-01T11:54:09Z</time>
      </trkpt>
      <trkpt lat="51.241915087529" lon="4.492449541389">
        <ele>19.2</ele>
        <time>2019-05-01T11:54:18Z</time>
      </trkpt>
      <trkpt lat="51.241823976276" lon="4.492174028336">
        <ele>16</ele>
        <time>2019-05-01T11:54:26Z</time>
      </trkpt>
      <trkpt lat="51.241719956897" lon="4.49193816167">
        <ele>12.4</ele>
        <time>2019-05-01T11:54:34Z</time>
      </trkpt>
      <trkpt lat="51.241607807075" lon="4.49171185037">
        <ele>6.8</ele>
        <time>2019-05-01T11:54:42Z</time>
      </trkpt>
      <trkpt lat="51.241471517381" lon="4.491526526561">
        <ele>2.2</ele>
        <time>2019-05-01T11:54:50Z</time>
      </trkpt>
      <trkpt lat="51.241295246024" lon="4.491368024832">
        <ele>1.2</ele>
        <time>2019-05-01T11:54:59Z</time>
      </trkpt>
      <trkpt lat="51.24111872321" lon="4.491273225543">
        <ele>0.8</ele>
        <time>2019-05-01T11:55:07Z</time>
      </trkpt>
      <trkpt lat="51.240944044414" lon="4.491181108462">
        <ele>1.2</ele>
        <time>2019-05-01T11:55:15Z</time>
      </trkpt>
      <trkpt lat="51.240764252659" lon="4.491100558403">
        <ele>2.4</ele>
        <time>2019-05-01T11:55:24Z</time>
      </trkpt>
      <trkpt lat="51.240586724017" lon="4.491025959493">
        <ele>1.6</ele>
        <time>2019-05-01T11:55:33Z</time>
      </trkpt>
      <trkpt lat="51.240392934489" lon="4.490944571244">
        <ele>1.6</ele>
        <time>2019-05-01T11:55:43Z</time>
      </trkpt>
      <trkpt lat="51.240064447828" lon="4.49079151775">
        <ele>3</ele>
        <time>2019-05-01T11:55:58Z</time>
      </trkpt>
      <trkpt lat="51.239879207838" lon="4.490709458949">
        <ele>4.4</ele>
        <time>2019-05-01T11:56:06Z</time>
      </trkpt>
      <trkpt lat="51.239685669767" lon="4.490628741252">
        <ele>5.6</ele>
        <time>2019-05-01T11:56:14Z</time>
      </trkpt>
      <trkpt lat="51.239494394809" lon="4.49054006075">
        <ele>4.2</ele>
        <time>2019-05-01T11:56:22Z</time>
      </trkpt>
      <trkpt lat="51.23929901272" lon="4.490434700267">
        <ele>3.8</ele>
        <time>2019-05-01T11:56:30Z</time>
      </trkpt>
      <trkpt lat="51.239102792441" lon="4.490343840471">
        <ele>3.6</ele>
        <time>2019-05-01T11:56:38Z</time>
      </trkpt>
      <trkpt lat="51.238919228831" lon="4.490268990104">
        <ele>2.2</ele>
        <time>2019-05-01T11:56:45Z</time>
      </trkpt>
      <trkpt lat="51.238740442904" lon="4.49020143199">
        <ele>1.4</ele>
        <time>2019-05-01T11:56:52Z</time>
      </trkpt>
      <trkpt lat="51.238558220398" lon="4.490170251322">
        <ele>1.4</ele>
        <time>2019-05-01T11:56:59Z</time>
      </trkpt>
      <trkpt lat="51.23836778363" lon="4.4901586843">
        <ele>0.8</ele>
        <time>2019-05-01T11:57:06Z</time>
      </trkpt>
      <trkpt lat="51.238163935822" lon="4.490137645731">
        <ele>1.4</ele>
        <time>2019-05-01T11:57:14Z</time>
      </trkpt>
      <trkpt lat="51.237982132411" lon="4.490164635449">
        <ele>0.6</ele>
        <time>2019-05-01T11:57:21Z</time>
      </trkpt>
      <trkpt lat="51.23778272701" lon="4.49021987217">
        <ele>0</ele>
        <time>2019-05-01T11:57:29Z</time>
      </trkpt>
      <trkpt lat="51.2375907815" lon="4.490317269848">
        <ele>0</ele>
        <time>2019-05-01T11:57:37Z</time>
      </trkpt>
      <trkpt lat="51.237398416895" lon="4.490397484631">
        <ele>0</ele>
        <time>2019-05-01T11:57:45Z</time>
      </trkpt>
      <trkpt lat="51.237209237412" lon="4.490463869279">
        <ele>0</ele>
        <time>2019-05-01T11:57:55Z</time>
      </trkpt>
      <trkpt lat="51.237018716825" lon="4.490551376315">
        <ele>0</ele>
        <time>2019-05-01T11:58:04Z</time>
      </trkpt>
      <trkpt lat="51.236824340564" lon="4.490579036585">
        <ele>0</ele>
        <time>2019-05-01T11:58:12Z</time>
      </trkpt>
      <trkpt lat="51.236646225189" lon="4.490535283067">
        <ele>0</ele>
        <time>2019-05-01T11:58:19Z</time>
      </trkpt>
      <trkpt lat="51.236455620783" lon="4.490454397732">
        <ele>0</ele>
        <time>2019-05-01T11:58:26Z</time>
      </trkpt>
      <trkpt lat="51.236340956391" lon="4.4902592671">
        <ele>0</ele>
        <time>2019-05-01T11:58:33Z</time>
      </trkpt>
      <trkpt lat="51.23633601107" lon="4.490215932677">
        <ele>0</ele>
        <time>2019-05-01T11:58:35Z</time>
      </trkpt>
      <trkpt lat="51.236310949189" lon="4.490193553004">
        <ele>0</ele>
        <time>2019-05-01T11:58:37Z</time>
      </trkpt>
      <trkpt lat="51.236156303134" lon="4.490054329645">
        <ele>0</ele>
        <time>2019-05-01T11:58:45Z</time>
      </trkpt>
      <trkpt lat="51.236055636515" lon="4.48980412993">
        <ele>1.2</ele>
        <time>2019-05-01T11:58:52Z</time>
      </trkpt>
      <trkpt lat="51.236019678164" lon="4.489723496052">
        <ele>1.2</ele>
        <time>2019-05-01T11:58:55Z</time>
      </trkpt>
      <trkpt lat="51.236075417799" lon="4.489428704629">
        <ele>0.4</ele>
        <time>2019-05-01T11:59:03Z</time>
      </trkpt>
      <trkpt lat="51.236072735591" lon="4.489133242654">
        <ele>1.6</ele>
        <time>2019-05-01T11:59:10Z</time>
      </trkpt>
      <trkpt lat="51.23607533398" lon="4.488821184517">
        <ele>3.2</ele>
        <time>2019-05-01T11:59:18Z</time>
      </trkpt>
      <trkpt lat="51.236070053383" lon="4.488512060045">
        <ele>3.6</ele>
        <time>2019-05-01T11:59:26Z</time>
      </trkpt>
      <trkpt lat="51.236064940424" lon="4.488191787646">
        <ele>2.4</ele>
        <time>2019-05-01T11:59:34Z</time>
      </trkpt>
      <trkpt lat="51.236054211592" lon="4.487878053129">
        <ele>3.2</ele>
        <time>2019-05-01T11:59:42Z</time>
      </trkpt>
      <trkpt lat="51.236046667882" lon="4.487589883407">
        <ele>2.6</ele>
        <time>2019-05-01T11:59:49Z</time>
      </trkpt>
      <trkpt lat="51.236044907683" lon="4.487266593524">
        <ele>2.8</ele>
        <time>2019-05-01T11:59:57Z</time>
      </trkpt>
      <trkpt lat="51.236031999557" lon="4.486940453795">
        <ele>3.6</ele>
        <time>2019-05-01T12:00:05Z</time>
      </trkpt>
      <trkpt lat="51.236036441964" lon="4.486619343206">
        <ele>4.8</ele>
        <time>2019-05-01T12:00:13Z</time>
      </trkpt>
      <trkpt lat="51.236033927394" lon="4.486305021956">
        <ele>6.8</ele>
        <time>2019-05-01T12:00:22Z</time>
      </trkpt>
      <trkpt lat="51.236037950706" lon="4.486010901085">
        <ele>6.6</ele>
        <time>2019-05-01T12:00:29Z</time>
      </trkpt>
      <trkpt lat="51.236024036752" lon="4.485684090804">
        <ele>6.4</ele>
        <time>2019-05-01T12:00:37Z</time>
      </trkpt>
      <trkpt lat="51.236003584916" lon="4.485364069862">
        <ele>6.6</ele>
        <time>2019-05-01T12:00:45Z</time>
      </trkpt>
      <trkpt lat="51.235933512232" lon="4.485081013099">
        <ele>7</ele>
        <time>2019-05-01T12:00:53Z</time>
      </trkpt>
      <trkpt lat="51.235935775345" lon="4.484781443993">
        <ele>8</ele>
        <time>2019-05-01T12:01:02Z</time>
      </trkpt>
      <trkpt lat="51.235973158619" lon="4.484495537384">
        <ele>6.6</ele>
        <time>2019-05-01T12:01:10Z</time>
      </trkpt>
      <trkpt lat="51.235981372881" lon="4.484209044042">
        <ele>5</ele>
        <time>2019-05-01T12:01:18Z</time>
      </trkpt>
      <trkpt lat="51.23599402955" lon="4.48390997785">
        <ele>2.8</ele>
        <time>2019-05-01T12:01:26Z</time>
      </trkpt>
      <trkpt lat="51.236006937676" lon="4.483598590265">
        <ele>3.8</ele>
        <time>2019-05-01T12:01:35Z</time>
      </trkpt>
      <trkpt lat="51.235994783921" lon="4.483301368091">
        <ele>2</ele>
        <time>2019-05-01T12:01:44Z</time>
      </trkpt>
      <trkpt lat="51.235996711758" lon="4.483002469537">
        <ele>4</ele>
        <time>2019-05-01T12:01:52Z</time>
      </trkpt>
      <trkpt lat="51.235988832772" lon="4.482422777333">
        <ele>0.8</ele>
        <time>2019-05-01T12:02:09Z</time>
      </trkpt>
      <trkpt lat="51.235994197188" lon="4.482130668118">
        <ele>0</ele>
        <time>2019-05-01T12:02:18Z</time>
      </trkpt>
      <trkpt lat="51.235994951559" lon="4.481829925546">
        <ele>0</ele>
        <time>2019-05-01T12:02:27Z</time>
      </trkpt>
      <trkpt lat="51.235987575487" lon="4.481517280676">
        <ele>0</ele>
        <time>2019-05-01T12:02:35Z</time>
      </trkpt>
      <trkpt lat="51.235978774492" lon="4.481222824529">
        <ele>0</ele>
        <time>2019-05-01T12:02:43Z</time>
      </trkpt>
      <trkpt lat="51.236035017041" lon="4.480922165776">
        <ele>2.4</ele>
        <time>2019-05-01T12:02:51Z</time>
      </trkpt>
      <trkpt lat="51.236032251014" lon="4.480602647748">
        <ele>1.6</ele>
        <time>2019-05-01T12:03:00Z</time>
      </trkpt>
      <trkpt lat="51.236037699249" lon="4.480306431402">
        <ele>0</ele>
        <time>2019-05-01T12:03:08Z</time>
      </trkpt>
      <trkpt lat="51.236052199936" lon="4.480004263907">
        <ele>0</ele>
        <time>2019-05-01T12:03:16Z</time>
      </trkpt>
      <trkpt lat="51.236054882144" lon="4.479710226855">
        <ele>0</ele>
        <time>2019-05-01T12:03:24Z</time>
      </trkpt>
      <trkpt lat="51.236072903229" lon="4.479416022165">
        <ele>0</ele>
        <time>2019-05-01T12:03:32Z</time>
      </trkpt>
      <trkpt lat="51.236066365347" lon="4.479095498309">
        <ele>0</ele>
        <time>2019-05-01T12:03:41Z</time>
      </trkpt>
      <trkpt lat="51.236077429455" lon="4.47877354953">
        <ele>0</ele>
        <time>2019-05-01T12:03:49Z</time>
      </trkpt>
      <trkpt lat="51.236057061438" lon="4.478465430886">
        <ele>0.2</ele>
        <time>2019-05-01T12:03:57Z</time>
      </trkpt>
      <trkpt lat="51.236038621258" lon="4.4781725673">
        <ele>3.4</ele>
        <time>2019-05-01T12:04:05Z</time>
      </trkpt>
      <trkpt lat="51.23608706864" lon="4.477833603264">
        <ele>9.4</ele>
        <time>2019-05-01T12:04:12Z</time>
      </trkpt>
      <trkpt lat="51.236028143883" lon="4.477551217053">
        <ele>16</ele>
        <time>2019-05-01T12:04:20Z</time>
      </trkpt>
      <trkpt lat="51.235935607707" lon="4.477292803076">
        <ele>14.4</ele>
        <time>2019-05-01T12:04:28Z</time>
      </trkpt>
      <trkpt lat="51.23583393526" lon="4.477025504285">
        <ele>4.8</ele>
        <time>2019-05-01T12:04:38Z</time>
      </trkpt>
      <trkpt lat="51.23574760169" lon="4.476759043684">
        <ele>0</ele>
        <time>2019-05-01T12:04:47Z</time>
      </trkpt>
      <trkpt lat="51.235677277549" lon="4.476479004405">
        <ele>0</ele>
        <time>2019-05-01T12:04:56Z</time>
      </trkpt>
      <trkpt lat="51.235632853479" lon="4.476299967021">
        <ele>0</ele>
        <time>2019-05-01T12:05:01Z</time>
      </trkpt>
      <trkpt lat="51.235622627561" lon="4.476243640653">
        <ele>0</ele>
        <time>2019-05-01T12:05:03Z</time>
      </trkpt>
      <trkpt lat="51.235574766912" lon="4.475967708505">
        <ele>0</ele>
        <time>2019-05-01T12:05:13Z</time>
      </trkpt>
      <trkpt lat="51.235508466083" lon="4.475695296755">
        <ele>0</ele>
        <time>2019-05-01T12:05:20Z</time>
      </trkpt>
      <trkpt lat="51.235460521615" lon="4.475396984934">
        <ele>0</ele>
        <time>2019-05-01T12:05:28Z</time>
      </trkpt>
      <trkpt lat="51.23539891465" lon="4.475118119121">
        <ele>0</ele>
        <time>2019-05-01T12:05:36Z</time>
      </trkpt>
      <trkpt lat="51.235322052627" lon="4.474829614123">
        <ele>0</ele>
        <time>2019-05-01T12:05:44Z</time>
      </trkpt>
      <trkpt lat="51.235246196432" lon="4.474549826301">
        <ele>0</ele>
        <time>2019-05-01T12:05:52Z</time>
      </trkpt>
      <trkpt lat="51.235219206714" lon="4.47424564715">
        <ele>0</ele>
        <time>2019-05-01T12:05:59Z</time>
      </trkpt>
      <trkpt lat="51.235087443246" lon="4.47401765947">
        <ele>1.6</ele>
        <time>2019-05-01T12:06:07Z</time>
      </trkpt>
      <trkpt lat="51.234953751941" lon="4.473793192188">
        <ele>4.2</ele>
        <time>2019-05-01T12:06:16Z</time>
      </trkpt>
      <trkpt lat="51.234838416997" lon="4.473546261414">
        <ele>4.8</ele>
        <time>2019-05-01T12:06:24Z</time>
      </trkpt>
      <trkpt lat="51.234722579139" lon="4.473413743575">
        <ele>4</ele>
        <time>2019-05-01T12:06:30Z</time>
      </trkpt>
      <trkpt lat="51.234683770942" lon="4.473434027773">
        <ele>4.2</ele>
        <time>2019-05-01T12:06:32Z</time>
      </trkpt>
      <trkpt lat="51.234540691909" lon="4.473641144522">
        <ele>5.4</ele>
        <time>2019-05-01T12:06:42Z</time>
      </trkpt>
      <trkpt lat="51.234358217946" lon="4.473773075628">
        <ele>0</ele>
        <time>2019-05-01T12:06:52Z</time>
      </trkpt>
      <trkpt lat="51.23420030295" lon="4.473913975367">
        <ele>0</ele>
        <time>2019-05-01T12:07:00Z</time>
      </trkpt>
      <trkpt lat="51.234034676606" lon="4.474085133765">
        <ele>0</ele>
        <time>2019-05-01T12:07:09Z</time>
      </trkpt>
      <trkpt lat="51.233867792977" lon="4.474260231656">
        <ele>0</ele>
        <time>2019-05-01T12:07:19Z</time>
      </trkpt>
      <trkpt lat="51.233716332044" lon="4.474425690362">
        <ele>0</ele>
        <time>2019-05-01T12:07:28Z</time>
      </trkpt>
      <trkpt lat="51.233578868884" lon="4.474635656957">
        <ele>0</ele>
        <time>2019-05-01T12:07:37Z</time>
      </trkpt>
      <trkpt lat="51.233424222829" lon="4.474827602467">
        <ele>0</ele>
        <time>2019-05-01T12:07:45Z</time>
      </trkpt>
      <trkpt lat="51.233276282294" lon="4.475018625968">
        <ele>0</ele>
        <time>2019-05-01T12:07:55Z</time>
      </trkpt>
      <trkpt lat="51.233144267369" lon="4.475238567024">
        <ele>0</ele>
        <time>2019-05-01T12:08:04Z</time>
      </trkpt>
      <trkpt lat="51.232989034581" lon="4.475412826725">
        <ele>0</ele>
        <time>2019-05-01T12:08:14Z</time>
      </trkpt>
      <trkpt lat="51.232808153179" lon="4.47556663459">
        <ele>0</ele>
        <time>2019-05-01T12:08:22Z</time>
      </trkpt>
      <trkpt lat="51.232612184357" lon="4.475607538262">
        <ele>0</ele>
        <time>2019-05-01T12:08:29Z</time>
      </trkpt>
      <trkpt lat="51.232462986537" lon="4.475404947739">
        <ele>0</ele>
        <time>2019-05-01T12:08:39Z</time>
      </trkpt>
      <trkpt lat="51.232316973839" lon="4.475103031701">
        <ele>0</ele>
        <time>2019-05-01T12:08:50Z</time>
      </trkpt>
      <trkpt lat="51.232223096559" lon="4.47483992386">
        <ele>0</ele>
        <time>2019-05-01T12:09:00Z</time>
      </trkpt>
      <trkpt lat="51.232107593977" lon="4.47460523066">
        <ele>0</ele>
        <time>2019-05-01T12:09:08Z</time>
      </trkpt>
      <trkpt lat="51.231963676754" lon="4.474380679559">
        <ele>0</ele>
        <time>2019-05-01T12:09:17Z</time>
      </trkpt>
      <trkpt lat="51.231840714281" lon="4.47414590254">
        <ele>0</ele>
        <time>2019-05-01T12:09:25Z</time>
      </trkpt>
      <trkpt lat="51.231702580569" lon="4.473928978968">
        <ele>0</ele>
        <time>2019-05-01T12:09:33Z</time>
      </trkpt>
      <trkpt lat="51.231598309733" lon="4.473684646583">
        <ele>0</ele>
        <time>2019-05-01T12:09:43Z</time>
      </trkpt>
      <trkpt lat="51.231483058608" lon="4.473529413795">
        <ele>0</ele>
        <time>2019-05-01T12:09:49Z</time>
      </trkpt>
      <trkpt lat="51.231358419755" lon="4.473283237392">
        <ele>0</ele>
        <time>2019-05-01T12:09:57Z</time>
      </trkpt>
      <trkpt lat="51.231270158348" lon="4.47301015509">
        <ele>0</ele>
        <time>2019-05-01T12:10:05Z</time>
      </trkpt>
      <trkpt lat="51.231142334373" lon="4.472763475773">
        <ele>0</ele>
        <time>2019-05-01T12:10:13Z</time>
      </trkpt>
      <trkpt lat="51.231060946124" lon="4.472499026828">
        <ele>0</ele>
        <time>2019-05-01T12:10:21Z</time>
      </trkpt>
      <trkpt lat="51.231023479031" lon="4.472246647819">
        <ele>0</ele>
        <time>2019-05-01T12:10:28Z</time>
      </trkpt>
      <trkpt lat="51.230910910114" lon="4.47200600347">
        <ele>0</ele>
        <time>2019-05-01T12:10:35Z</time>
      </trkpt>
      <trkpt lat="51.230804711441" lon="4.471747924769">
        <ele>0</ele>
        <time>2019-05-01T12:10:42Z</time>
      </trkpt>
      <trkpt lat="51.23070840341" lon="4.471490935715">
        <ele>0</ele>
        <time>2019-05-01T12:10:49Z</time>
      </trkpt>
      <trkpt lat="51.230585021842" lon="4.471236628869">
        <ele>0</ele>
        <time>2019-05-01T12:10:57Z</time>
      </trkpt>
      <trkpt lat="51.230479745178" lon="4.470993637588">
        <ele>0</ele>
        <time>2019-05-01T12:11:05Z</time>
      </trkpt>
      <trkpt lat="51.230470525088" lon="4.470695577224">
        <ele>0</ele>
        <time>2019-05-01T12:11:13Z</time>
      </trkpt>
      <trkpt lat="51.230478068798" lon="4.470385279286">
        <ele>0</ele>
        <time>2019-05-01T12:11:21Z</time>
      </trkpt>
      <trkpt lat="51.230395171807" lon="4.470108006034">
        <ele>0</ele>
        <time>2019-05-01T12:11:29Z</time>
      </trkpt>
      <trkpt lat="51.230301797441" lon="4.469829475497">
        <ele>0</ele>
        <time>2019-05-01T12:11:38Z</time>
      </trkpt>
      <trkpt lat="51.230181936271" lon="4.469608193337">
        <ele>0</ele>
        <time>2019-05-01T12:11:47Z</time>
      </trkpt>
      <trkpt lat="51.230146229377" lon="4.469606768414">
        <ele>0</ele>
        <time>2019-05-01T12:11:49Z</time>
      </trkpt>
      <trkpt lat="51.229972137314" lon="4.469718918236">
        <ele>0</ele>
        <time>2019-05-01T12:11:58Z</time>
      </trkpt>
      <trkpt lat="51.22978555622" lon="4.469826960927">
        <ele>0</ele>
        <time>2019-05-01T12:12:07Z</time>
      </trkpt>
      <trkpt lat="51.229603752809" lon="4.469879180164">
        <ele>0</ele>
        <time>2019-05-01T12:12:15Z</time>
      </trkpt>
      <trkpt lat="51.229409963281" lon="4.4699247777">
        <ele>0</ele>
        <time>2019-05-01T12:12:23Z</time>
      </trkpt>
      <trkpt lat="51.229217514857" lon="4.469909774099">
        <ele>0</ele>
        <time>2019-05-01T12:12:31Z</time>
      </trkpt>
      <trkpt lat="51.229021713673" lon="4.469879934535">
        <ele>0</ele>
        <time>2019-05-01T12:12:39Z</time>
      </trkpt>
      <trkpt lat="51.228822643548" lon="4.469838611768">
        <ele>0</ele>
        <time>2019-05-01T12:12:47Z</time>
      </trkpt>
      <trkpt lat="51.228636230092" lon="4.469734676208">
        <ele>0</ele>
        <time>2019-05-01T12:12:56Z</time>
      </trkpt>
      <trkpt lat="51.228499940398" lon="4.469527224183">
        <ele>0</ele>
        <time>2019-05-01T12:13:04Z</time>
      </trkpt>
      <trkpt lat="51.228401201616" lon="4.469283227074">
        <ele>0</ele>
        <time>2019-05-01T12:13:13Z</time>
      </trkpt>
      <trkpt lat="51.228289470889" lon="4.469016766473">
        <ele>0</ele>
        <time>2019-05-01T12:13:22Z</time>
      </trkpt>
      <trkpt lat="51.228197772903" lon="4.468761453799">
        <ele>0</ele>
        <time>2019-05-01T12:13:30Z</time>
      </trkpt>
      <trkpt lat="51.22809492699" lon="4.46848979642">
        <ele>0</ele>
        <time>2019-05-01T12:13:39Z</time>
      </trkpt>
      <trkpt lat="51.228036924242" lon="4.468193496255">
        <ele>0</ele>
        <time>2019-05-01T12:13:48Z</time>
      </trkpt>
      <trkpt lat="51.227976826019" lon="4.467914127528">
        <ele>0</ele>
        <time>2019-05-01T12:13:57Z</time>
      </trkpt>
      <trkpt lat="51.227902227109" lon="4.46765160642">
        <ele>0.4</ele>
        <time>2019-05-01T12:14:05Z</time>
      </trkpt>
      <trkpt lat="51.227806505811" lon="4.467381122507">
        <ele>6.4</ele>
        <time>2019-05-01T12:14:13Z</time>
      </trkpt>
      <trkpt lat="51.227735259661" lon="4.467099993581">
        <ele>10.4</ele>
        <time>2019-05-01T12:14:21Z</time>
      </trkpt>
      <trkpt lat="51.227739199154" lon="4.466795982068">
        <ele>11.6</ele>
        <time>2019-05-01T12:14:29Z</time>
      </trkpt>
      <trkpt lat="51.22784598456" lon="4.466563216705">
        <ele>10.2</ele>
        <time>2019-05-01T12:14:36Z</time>
      </trkpt>
      <trkpt lat="51.227892587924" lon="4.46628284215">
        <ele>6</ele>
        <time>2019-05-01T12:14:44Z</time>
      </trkpt>
      <trkpt lat="51.227888313155" lon="4.465994169514">
        <ele>1.6</ele>
        <time>2019-05-01T12:14:53Z</time>
      </trkpt>
      <trkpt lat="51.227868867147" lon="4.465705664516">
        <ele>0</ele>
        <time>2019-05-01T12:15:03Z</time>
      </trkpt>
      <trkpt lat="51.227879847436" lon="4.465415818414">
        <ele>0</ele>
        <time>2019-05-01T12:15:12Z</time>
      </trkpt>
      <trkpt lat="51.227852019528" lon="4.465056234904">
        <ele>0</ele>
        <time>2019-05-01T12:15:24Z</time>
      </trkpt>
      <trkpt lat="51.227809858571" lon="4.464769993019">
        <ele>0</ele>
        <time>2019-05-01T12:15:32Z</time>
      </trkpt>
      <trkpt lat="51.227770212184" lon="4.464461287642">
        <ele>0</ele>
        <time>2019-05-01T12:15:41Z</time>
      </trkpt>
      <trkpt lat="51.227769541632" lon="4.46439859103">
        <ele>0</ele>
        <time>2019-05-01T12:15:43Z</time>
      </trkpt>
      <trkpt lat="51.227767613795" lon="4.464340420644">
        <ele>0.8</ele>
        <time>2019-05-01T12:15:56Z</time>
      </trkpt>
      <trkpt lat="51.227764344854" lon="4.464035570941">
        <ele>4.8</ele>
        <time>2019-05-01T12:16:06Z</time>
      </trkpt>
      <trkpt lat="51.227794184418" lon="4.463751173074">
        <ele>6.2</ele>
        <time>2019-05-01T12:16:14Z</time>
      </trkpt>
      <trkpt lat="51.227766021234" lon="4.463443976439">
        <ele>6.2</ele>
        <time>2019-05-01T12:16:23Z</time>
      </trkpt>
      <trkpt lat="51.227715813653" lon="4.463156812545">
        <ele>7.4</ele>
        <time>2019-05-01T12:16:33Z</time>
      </trkpt>
      <trkpt lat="51.227639119268" lon="4.462857494896">
        <ele>8.4</ele>
        <time>2019-05-01T12:16:43Z</time>
      </trkpt>
      <trkpt lat="51.227587654402" lon="4.462562032921">
        <ele>6</ele>
        <time>2019-05-01T12:16:53Z</time>
      </trkpt>
      <trkpt lat="51.227535183708" lon="4.462268498783">
        <ele>4.8</ele>
        <time>2019-05-01T12:17:02Z</time>
      </trkpt>
      <trkpt lat="51.227485479041" lon="4.46196616365">
        <ele>5.8</ele>
        <time>2019-05-01T12:17:11Z</time>
      </trkpt>
      <trkpt lat="51.227398810195" lon="4.46168285543">
        <ele>4.6</ele>
        <time>2019-05-01T12:17:20Z</time>
      </trkpt>
      <trkpt lat="51.227380705291" lon="4.461368701818">
        <ele>4.8</ele>
        <time>2019-05-01T12:17:30Z</time>
      </trkpt>
      <trkpt lat="51.227385985888" lon="4.461181785448">
        <ele>2.4</ele>
        <time>2019-05-01T12:17:36Z</time>
      </trkpt>
      <trkpt lat="51.227389841562" lon="4.460873834442">
        <ele>0</ele>
        <time>2019-05-01T12:17:44Z</time>
      </trkpt>
      <trkpt lat="51.227318176317" lon="4.460581725227">
        <ele>2</ele>
        <time>2019-05-01T12:17:52Z</time>
      </trkpt>
      <trkpt lat="51.22727182441" lon="4.460276204972">
        <ele>0.8</ele>
        <time>2019-05-01T12:18:01Z</time>
      </trkpt>
      <trkpt lat="51.227182389537" lon="4.46001401914">
        <ele>0</ele>
        <time>2019-05-01T12:18:09Z</time>
      </trkpt>
      <trkpt lat="51.227131511404" lon="4.459726939065">
        <ele>0</ele>
        <time>2019-05-01T12:18:17Z</time>
      </trkpt>
      <trkpt lat="51.22702623474" lon="4.459446899786">
        <ele>0</ele>
        <time>2019-05-01T12:18:25Z</time>
      </trkpt>
      <trkpt lat="51.226979212281" lon="4.459197957356">
        <ele>1.4</ele>
        <time>2019-05-01T12:18:33Z</time>
      </trkpt>
      <trkpt lat="51.227154142534" lon="4.459076168349">
        <ele>2.8</ele>
        <time>2019-05-01T12:18:42Z</time>
      </trkpt>
      <trkpt lat="51.227326809674" lon="4.45898304544">
        <ele>3.8</ele>
        <time>2019-05-01T12:18:50Z</time>
      </trkpt>
      <trkpt lat="51.227514312777" lon="4.458870308885">
        <ele>9.4</ele>
        <time>2019-05-01T12:19:00Z</time>
      </trkpt>
      <trkpt lat="51.227563849806" lon="4.458834015258">
        <ele>11</ele>
        <time>2019-05-01T12:19:03Z</time>
      </trkpt>
      <trkpt lat="51.227573488991" lon="4.458820352761">
        <ele>12.2</ele>
        <time>2019-05-01T12:19:04Z</time>
      </trkpt>
      <trkpt lat="51.227647249711" lon="4.458786573704">
        <ele>14.6</ele>
        <time>2019-05-01T12:19:21Z</time>
      </trkpt>
      <trkpt lat="51.227666025167" lon="4.458768887895">
        <ele>14.4</ele>
        <time>2019-05-01T12:19:23Z</time>
      </trkpt>
      <trkpt lat="51.22784598456" lon="4.458665958163">
        <ele>13.2</ele>
        <time>2019-05-01T12:19:33Z</time>
      </trkpt>
      <trkpt lat="51.228032649473" lon="4.458587503579">
        <ele>11.4</ele>
        <time>2019-05-01T12:19:43Z</time>
      </trkpt>
      <trkpt lat="51.228210094296" lon="4.458494464489">
        <ele>11.6</ele>
        <time>2019-05-01T12:19:51Z</time>
      </trkpt>
      <trkpt lat="51.228407068946" lon="4.458410226394">
        <ele>1.6</ele>
        <time>2019-05-01T12:19:58Z</time>
      </trkpt>
      <trkpt lat="51.228578730258" lon="4.458266225352">
        <ele>0.8</ele>
        <time>2019-05-01T12:20:05Z</time>
      </trkpt>
      <trkpt lat="51.22884259247" lon="4.458156422462">
        <ele>4</ele>
        <time>2019-05-01T12:20:20Z</time>
      </trkpt>
      <trkpt lat="51.229026826632" lon="4.458120799387">
        <ele>4.4</ele>
        <time>2019-05-01T12:20:28Z</time>
      </trkpt>
      <trkpt lat="51.229223633644" lon="4.458041255156">
        <ele>9.8</ele>
        <time>2019-05-01T12:20:36Z</time>
      </trkpt>
      <trkpt lat="51.229413483679" lon="4.457987862453">
        <ele>11.4</ele>
        <time>2019-05-01T12:20:45Z</time>
      </trkpt>
      <trkpt lat="51.229611967071" lon="4.458002949873">
        <ele>10</ele>
        <time>2019-05-01T12:20:54Z</time>
      </trkpt>
      <trkpt lat="51.229790669179" lon="4.457885603273">
        <ele>7</ele>
        <time>2019-05-01T12:21:02Z</time>
      </trkpt>
      <trkpt lat="51.22998672182" lon="4.457815530589">
        <ele>5.8</ele>
        <time>2019-05-01T12:21:12Z</time>
      </trkpt>
      <trkpt lat="51.230192162189" lon="4.457770938881">
        <ele>10.4</ele>
        <time>2019-05-01T12:21:19Z</time>
      </trkpt>
      <trkpt lat="51.230372959772" lon="4.457715953617">
        <ele>13.2</ele>
        <time>2019-05-01T12:21:27Z</time>
      </trkpt>
      <trkpt lat="51.230566665481" lon="4.457695082686">
        <ele>10.4</ele>
        <time>2019-05-01T12:21:36Z</time>
      </trkpt>
      <trkpt lat="51.230749139444" lon="4.457616041369">
        <ele>4.4</ele>
        <time>2019-05-01T12:21:43Z</time>
      </trkpt>
      <trkpt lat="51.230801610138" lon="4.457596762999">
        <ele>3.2</ele>
        <time>2019-05-01T12:21:45Z</time>
      </trkpt>
      <trkpt lat="51.230826252924" lon="4.457663399104">
        <ele>0</ele>
        <time>2019-05-01T12:21:49Z</time>
      </trkpt>
      <trkpt lat="51.230642689314" lon="4.457698183989">
        <ele>0</ele>
        <time>2019-05-01T12:22:00Z</time>
      </trkpt>
      <trkpt lat="51.230464238663" lon="4.457759874773">
        <ele>0</ele>
        <time>2019-05-01T12:22:09Z</time>
      </trkpt>
      <trkpt lat="51.23026583909" lon="4.457788876147">
        <ele>0</ele>
        <time>2019-05-01T12:22:18Z</time>
      </trkpt>
      <trkpt lat="51.230086885525" lon="4.457824499222">
        <ele>0</ele>
        <time>2019-05-01T12:22:26Z</time>
      </trkpt>
      <trkpt lat="51.229887731581" lon="4.45786070903">
        <ele>0</ele>
        <time>2019-05-01T12:22:35Z</time>
      </trkpt>
      <trkpt lat="51.22971011912" lon="4.457915275199">
        <ele>0</ele>
        <time>2019-05-01T12:22:44Z</time>
      </trkpt>
      <trkpt lat="51.229604171904" lon="4.457971601567">
        <ele>0</ele>
        <time>2019-05-01T12:22:49Z</time>
      </trkpt>
    </trkseg>
  </trk>
</gpx>